Observation data for Dell City 1N on 02/14/2020      Previous  Date  Next       Current Mesonet Observations  Soil Data  Daily Summary Page  Observations in Plain Language
KDC1 140600Z 30008KT 03/M00 A3019 RMK A01 T00281002  RH  080%=      5-min Rain = 0
KDC1 140601Z 30008KT 03/M00 A3019 RMK A01 T00281003  RH  080%=      5-min Rain = 0
KDC1 140602Z 29008KT 03/M00 A3019 RMK A01 T00291002  RH  080%=      5-min Rain = 0
KDC1 140603Z 29008KT 03/M00 A3019 RMK A01 T00291003  RH  080%=      5-min Rain = 0
KDC1 140604Z 29008KT 03/M00 A3019 RMK A01 T00291003  RH  080%=      5-min Rain = 0
KDC1 140605Z 28007KT 03/M00 A3019 RMK A01 T00281003  RH  080%=      5-min Rain = 0
KDC1 140606Z 28007KT 03/M00 A3019 RMK A01 T00291002  RH  080%=      5-min Rain = 0
KDC1 140607Z 28006KT 03/M00 A3019 RMK A01 T00291003  RH  079%=      5-min Rain = 0
KDC1 140608Z 29006KT 03/M00 A3019 RMK A01 T00291003  RH  079%=      5-min Rain = 0
KDC1 140609Z 29007KT 03/M00 A3019 RMK A01 T00291003  RH  080%=      5-min Rain = 0
KDC1 140610Z 29006KT 03/M00 A3019 RMK A01 T00281003  RH  080%=      5-min Rain = 0
KDC1 140611Z 31005KT 03/M00 A3019 RMK A01 T00281003  RH  080%=      5-min Rain = 0
KDC1 140612Z 34003KT 03/M00 A3019 RMK A01 T00271004  RH  080%=      5-min Rain = 0
KDC1 140613Z 31003KT 03/M01 A3019 RMK A01 T00251005  RH  080%=      5-min Rain = 0
KDC1 140614Z 30004KT 02/M01 A3019 RMK A01 T00241005  RH  081%=      5-min Rain = 0
KDC1 140615Z 32004KT 02/M00 A3019 RMK A01 T00241004  RH  082%=      5-min Rain = 0
KDC1 140616Z 32005KT 02/M00 A3019 RMK A01 T00231004  RH  082%=      5-min Rain = 0
KDC1 140617Z 30005KT 02/M00 A3019 RMK A01 T00241004  RH  082%=      5-min Rain = 0
KDC1 140618Z 31005KT 02/M00 A3019 RMK A01 T00241004  RH  082%=      5-min Rain = 0
KDC1 140619Z 34003KT 02/M00 A3019 RMK A01 T00231004  RH  082%=      5-min Rain = 0
KDC1 140620Z 33003KT 02/M01 A3019 RMK A01 T00221005  RH  082%=      5-min Rain = 0
KDC1 140621Z 33004KT 02/M01 A3019 RMK A01 T00211005  RH  083%=      5-min Rain = 0
KDC1 140622Z 33004KT 02/M01 A3019 RMK A01 T00211005  RH  083%=      5-min Rain = 0
KDC1 140623Z 32004KT 02/M01 A3019 RMK A01 T00201005  RH  084%=      5-min Rain = 0
KDC1 140624Z 31004KT 02/M01 A3019 RMK A01 T00191005  RH  084%=      5-min Rain = 0
KDC1 140625Z 31004KT 02/M01 A3019 RMK A01 T00191005  RH  084%=      5-min Rain = 0
KDC1 140626Z 31004KT 02/M01 A3019 RMK A01 T00181005  RH  085%=      5-min Rain = 0
KDC1 140627Z 31004KT 02/M01 A3019 RMK A01 T00171007  RH  085%=      5-min Rain = 0
KDC1 140628Z 31004KT 02/M01 A3019 RMK A01 T00151007  RH  085%=      5-min Rain = 0
KDC1 140629Z 32005KT 01/M01 A3019 RMK A01 T00141007  RH  086%=      5-min Rain = 0
KDC1 140630Z 32005KT 01/M01 A3019 RMK A01 T00131008  RH  086%=      5-min Rain = 0
KDC1 140631Z 32005KT 01/M01 A3019 RMK A01 T00121007  RH  087%=      5-min Rain = 0
KDC1 140632Z 33005KT 01/M01 A3019 RMK A01 T00121007  RH  087%=      5-min Rain = 0
KDC1 140633Z 32005KT 01/M01 A3019 RMK A01 T00121007  RH  087%=      5-min Rain = 0
KDC1 140634Z 32005KT 01/M01 A3019 RMK A01 T00121007  RH  087%=      5-min Rain = 0
KDC1 140635Z 32005KT 01/M01 A3019 RMK A01 T00121007  RH  087%=      5-min Rain = 0
KDC1 140636Z 32005KT 01/M01 A3019 RMK A01 T00131007  RH  087%=      5-min Rain = 0
KDC1 140637Z 32006KT 01/M01 A3019 RMK A01 T00131007  RH  086%=      5-min Rain = 0
KDC1 140638Z 32006KT 01/M01 A3019 RMK A01 T00141007  RH  086%=      5-min Rain = 0
KDC1 140639Z 32007KT 01/M01 A3019 RMK A01 T00141006  RH  086%=      5-min Rain = 0
KDC1 140640Z 32007KT 02/M01 A3019 RMK A01 T00161005  RH  086%=      5-min Rain = 0
KDC1 140641Z 32006KT 02/M01 A3019 RMK A01 T00171005  RH  085%=      5-min Rain = 0
KDC1 140642Z 32006KT 02/M01 A3019 RMK A01 T00171006  RH  084%=      5-min Rain = 0
KDC1 140643Z 31005KT 02/M01 A3019 RMK A01 T00171007  RH  084%=      5-min Rain = 0
KDC1 140644Z 31005KT 02/M01 A3019 RMK A01 T00151009  RH  084%=      5-min Rain = 0
KDC1 140645Z 31005KT 01/M01 A3019 RMK A01 T00131010  RH  084%=      5-min Rain = 0
KDC1 140646Z 30006KT 01/M01 A3019 RMK A01 T00121011  RH  085%=      5-min Rain = 0
KDC1 140647Z 30006KT 01/M01 A3019 RMK A01 T00111011  RH  085%=      5-min Rain = 0
KDC1 140648Z 31007KT 01/M01 A3019 RMK A01 T00101011  RH  086%=      5-min Rain = 0
KDC1 140649Z 31008KT 01/M01 A3019 RMK A01 T00101009  RH  087%=      5-min Rain = 0
KDC1 140650Z 30008KT 01/M01 A3019 RMK A01 T00111008  RH  087%=      5-min Rain = 0
KDC1 140651Z 30008KT 01/M01 A3019 RMK A01 T00111009  RH  087%=      5-min Rain = 0
KDC1 140652Z 30008KT 01/M01 A3019 RMK A01 T00111010  RH  086%=      5-min Rain = 0
KDC1 140653Z 30007KT 01/M01 A3019 RMK A01 T00091012  RH  086%=      5-min Rain = 0
KDC1 140654Z 30007KT 01/M01 A3019 RMK A01 T00071013  RH  086%=      5-min Rain = 0
KDC1 140655Z 30007KT 01/M01 A3019 RMK A01 T00061012  RH  088%=      5-min Rain = 0
KDC1 140656Z 29007KT 01/M01 A3019 RMK A01 T00071010  RH  088%=      5-min Rain = 0
KDC1 140657Z 29007KT 01/M01 A3019 RMK A01 T00081010  RH  088%=      5-min Rain = 0
KDC1 140658Z 30007KT 01/M01 A3019 RMK A01 T00081010  RH  088%=      5-min Rain = 0
KDC1 140659Z 30007KT 01/M01 A3019 RMK A01 T00071012  RH  088%=      5-min Rain = 0
KDC1 140700Z 29007KT 01/M01 A3019 RMK A01 T00061012  RH  088%=      5-min Rain = 0
KDC1 140701Z 29008KT 01/M01 A3019 RMK A01 T00061012  RH  088%=      5-min Rain = 0
KDC1 140702Z 29008KT 01/M01 A3019 RMK A01 T00061012  RH  088%=      5-min Rain = 0
KDC1 140703Z 29008KT 01/M01 A3019 RMK A01 T00061012  RH  088%=      5-min Rain = 0
KDC1 140704Z 30008KT 01/M01 A3019 RMK A01 T00071009  RH  089%=      5-min Rain = 0
KDC1 140705Z 30008KT 01/M01 A3019 RMK A01 T00091009  RH  088%=      5-min Rain = 0
KDC1 140706Z 29008KT 01/M01 A3019 RMK A01 T00091010  RH  087%=      5-min Rain = 0
KDC1 140707Z 29008KT 01/M01 A3019 RMK A01 T00091010  RH  087%=      5-min Rain = 0
KDC1 140708Z 30008KT 01/M01 A3019 RMK A01 T00101009  RH  087%=      5-min Rain = 0
KDC1 140709Z 30008KT 01/M01 A3019 RMK A01 T00111009  RH  087%=      5-min Rain = 0
KDC1 140710Z 30008KT 01/M01 A3019 RMK A01 T00111009  RH  086%=      5-min Rain = 0
KDC1 140711Z 30008KT 01/M01 A3019 RMK A01 T00121008  RH  086%=      5-min Rain = 0
KDC1 140712Z 30008KT 01/M01 A3019 RMK A01 T00141007  RH  086%=      5-min Rain = 0
KDC1 140713Z 29008KT 01/M01 A3019 RMK A01 T00141008  RH  085%=      5-min Rain = 0
KDC1 140714Z 29008KT 01/M01 A3019 RMK A01 T00141008  RH  085%=      5-min Rain = 0
KDC1 140715Z 30008KT 02/M01 A3019 RMK A01 T00151008  RH  085%=      5-min Rain = 0
KDC1 140716Z 30008KT 02/M01 A3019 RMK A01 T00161007  RH  085%=      5-min Rain = 0
KDC1 140717Z 30008KT 02/M01 A3019 RMK A01 T00171006  RH  085%=      5-min Rain = 0
KDC1 140718Z 30007KT 02/M01 A3019 RMK A01 T00171006  RH  084%=      5-min Rain = 0
KDC1 140719Z 30007KT 02/M01 A3019 RMK A01 T00181006  RH  084%=      5-min Rain = 0
KDC1 140720Z 30007KT 02/M01 A3019 RMK A01 T00171007  RH  084%=      5-min Rain = 0
KDC1 140721Z 29007KT 02/M01 A3019 RMK A01 T00171007  RH  084%=      5-min Rain = 0
KDC1 140722Z 29006KT 02/M01 A3019 RMK A01 T00161008  RH  084%=      5-min Rain = 0
KDC1 140723Z 29006KT 01/M01 A3019 RMK A01 T00141010  RH  084%=      5-min Rain = 0
KDC1 140724Z 29006KT 01/M01 A3019 RMK A01 T00121011  RH  084%=      5-min Rain = 0
KDC1 140725Z 28006KT 01/M01 A3019 RMK A01 T00111012  RH  085%=      5-min Rain = 0
KDC1 140726Z 28007KT 01/M01 A3019 RMK A01 T00091012  RH  086%=      5-min Rain = 0
KDC1 140727Z 28007KT 01/M01 A3019 RMK A01 T00081012  RH  086%=      5-min Rain = 0
KDC1 140728Z 28007KT 01/M01 A3019 RMK A01 T00081011  RH  087%=      5-min Rain = 0
KDC1 140729Z 28007KT 01/M01 A3019 RMK A01 T00081011  RH  087%=      5-min Rain = 0
KDC1 140730Z 28006KT 01/M01 A3019 RMK A01 T00081010  RH  088%=      5-min Rain = 0
KDC1 140731Z 28006KT 01/M01 A3019 RMK A01 T00081010  RH  088%=      5-min Rain = 0
KDC1 140732Z 29007KT 01/M01 A3019 RMK A01 T00081010  RH  088%=      5-min Rain = 0
KDC1 140733Z 29007KT 01/M01 A3019 RMK A01 T00081010  RH  088%=      5-min Rain = 0
KDC1 140734Z 29007KT 01/M01 A3019 RMK A01 T00071011  RH  088%=      5-min Rain = 0
KDC1 140735Z 29007KT 01/M01 A3019 RMK A01 T00071010  RH  088%=      5-min Rain = 0
KDC1 140736Z 29007KT 01/M01 A3019 RMK A01 T00081009  RH  088%=      5-min Rain = 0
KDC1 140737Z 29007KT 01/M01 A3019 RMK A01 T00081009  RH  088%=      5-min Rain = 0
KDC1 140738Z 30008KT 01/M01 A3019 RMK A01 T00081009  RH  088%=      5-min Rain = 0
KDC1 140739Z 30008KT 01/M01 A3019 RMK A01 T00081009  RH  088%=      5-min Rain = 0
KDC1 140740Z 29008KT 01/M01 A3019 RMK A01 T00081009  RH  088%=      5-min Rain = 0
KDC1 140741Z 29008KT 01/M01 A3019 RMK A01 T00081009  RH  088%=      5-min Rain = 0
KDC1 140742Z 29008KT 01/M01 A3019 RMK A01 T00081009  RH  089%=      5-min Rain = 0
KDC1 140743Z 29007KT 01/M01 A3019 RMK A01 T00091008  RH  089%=      5-min Rain = 0
KDC1 140744Z 29008KT 01/M01 A3019 RMK A01 T00081009  RH  089%=      5-min Rain = 0
KDC1 140745Z 29008KT 01/M01 A3019 RMK A01 T00081009  RH  089%=      5-min Rain = 0
KDC1 140746Z 29008KT 01/M01 A3019 RMK A01 T00071009  RH  089%=      5-min Rain = 0
KDC1 140747Z 29007KT 01/M01 A3019 RMK A01 T00071009  RH  089%=      5-min Rain = 0
KDC1 140748Z 29007KT 01/M01 A3019 RMK A01 T00071010  RH  089%=      5-min Rain = 0
KDC1 140749Z 29006KT 01/M01 A3019 RMK A01 T00061010  RH  088%=      5-min Rain = 0
KDC1 140750Z 29007KT 01/M01 A3019 RMK A01 T00061011  RH  089%=      5-min Rain = 0
KDC1 140751Z 29007KT 01/M01 A3019 RMK A01 T00061011  RH  089%=      5-min Rain = 0
KDC1 140752Z 30007KT 01/M01 A3019 RMK A01 T00061010  RH  089%=      5-min Rain = 0
KDC1 140753Z 30006KT 01/M01 A3019 RMK A01 T00061010  RH  089%=      5-min Rain = 0
KDC1 140754Z 35004KT 01/M01 A3019 RMK A01 T00061010  RH  089%=      5-min Rain = 0
KDC1 140755Z 32005KT 01/M01 A3019 RMK A01 T00051010  RH  089%=      5-min Rain = 0
KDC1 140756Z 31005KT 01/M01 A3019 RMK A01 T00051010  RH  090%=      5-min Rain = 0
KDC1 140757Z 34005KT 01/M01 A3019 RMK A01 T00051010  RH  090%=      5-min Rain = 0
KDC1 140758Z 34005KT 01/M01 A3019 RMK A01 T00061009  RH  090%=      5-min Rain = 0
KDC1 140759Z 35005KT 01/M01 A3019 RMK A01 T00061009  RH  090%=      5-min Rain = 0
KDC1 140800Z 33006KT 01/M01 A3019 RMK A01 T00061009  RH  090%=      5-min Rain = 0
KDC1 140801Z 32007KT 01/M01 A3019 RMK A01 T00061009  RH  090%=      5-min Rain = 0
KDC1 140802Z 32007KT 01/M01 A3019 RMK A01 T00071008  RH  090%=      5-min Rain = 0
KDC1 140803Z 32007KT 01/M01 A3019 RMK A01 T00081008  RH  089%=      5-min Rain = 0
KDC1 140804Z 33006KT 01/M01 A3019 RMK A01 T00081008  RH  089%=      5-min Rain = 0
KDC1 140805Z 33005KT 01/M01 A3019 RMK A01 T00081009  RH  089%=      5-min Rain = 0
KDC1 140806Z 33005KT 01/M01 A3019 RMK A01 T00071010  RH  089%=      5-min Rain = 0
KDC1 140807Z 32005KT 01/M01 A3019 RMK A01 T00061011  RH  089%=      5-min Rain = 0
KDC1 140808Z 32005KT 01/M01 A3019 RMK A01 T00051011  RH  089%=      5-min Rain = 0
KDC1 140809Z 32006KT 01/M01 A3019 RMK A01 T00051011  RH  089%=      5-min Rain = 0
KDC1 140810Z 32005KT 00/M01 A3019 RMK A01 T00041011  RH  090%=      5-min Rain = 0
KDC1 140811Z 31005KT 00/M01 A3019 RMK A01 T00031012  RH  090%=      5-min Rain = 0
KDC1 140812Z 31005KT 00/M01 A3019 RMK A01 T00021012  RH  090%=      5-min Rain = 0
KDC1 140813Z 31005KT 00/M01 A3018 RMK A01 T00021012  RH  090%=      5-min Rain = 0
KDC1 140814Z 31005KT 00/M01 A3018 RMK A01 T00011013  RH  090%=      5-min Rain = 0
KDC1 140815Z 32005KT 00/M01 A3018 RMK A01 T00011013  RH  090%=      5-min Rain = 0
KDC1 140816Z 32005KT 00/M01 A3018 RMK A01 T00011013  RH  091%=      5-min Rain = 0
KDC1 140817Z 32005KT 00/M01 A3018 RMK A01 T00011013  RH  091%=      5-min Rain = 0
KDC1 140818Z 32006KT 00/01 A3018 RMK A01 T00000-13  RH  091%=      5-min Rain = 0
KDC1 140819Z 32005KT 00/01 A3018 RMK A01 T00000-13  RH  091%=      5-min Rain = 0
KDC1 140820Z 32006KT 00/01 A3018 RMK A01 T00000-13  RH  091%=      5-min Rain = 0
KDC1 140821Z 32006KT 00/01 A3018 RMK A01 T00-00-13  RH  091%=      5-min Rain = 0
KDC1 140822Z 33005KT 00/01 A3018 RMK A01 T00000-12  RH  091%=      5-min Rain = 0
KDC1 140823Z 33005KT 00/M01 A3018 RMK A01 T00011012  RH  091%=      5-min Rain = 0
KDC1 140824Z 33004KT 00/M01 A3018 RMK A01 T00011012  RH  091%=      5-min Rain = 0
KDC1 140825Z 32004KT 00/01 A3018 RMK A01 T00000-12  RH  091%=      5-min Rain = 0
KDC1 140826Z 32004KT 00/01 A3018 RMK A01 T00000-13  RH  091%=      5-min Rain = 0
KDC1 140827Z 32004KT M00/M01 A3018 RMK A01 T10011013  RH  091%=      5-min Rain = 0
KDC1 140828Z 32004KT M00/M01 A3018 RMK A01 T10011014  RH  091%=      5-min Rain = 0
KDC1 140829Z 32004KT M00/M02 A3018 RMK A01 T10021015  RH  091%=      5-min Rain = 0
KDC1 140830Z 31004KT M00/M02 A3018 RMK A01 T10031015  RH  091%=      5-min Rain = 0
KDC1 140831Z 31004KT M00/M02 A3018 RMK A01 T10031016  RH  091%=      5-min Rain = 0
KDC1 140832Z 31004KT M00/M02 A3018 RMK A01 T10041016  RH  092%=      5-min Rain = 0
KDC1 140833Z 31004KT M01/M02 A3018 RMK A01 T10051017  RH  092%=      5-min Rain = 0
KDC1 140834Z 31004KT M01/M02 A3018 RMK A01 T10061018  RH  092%=      5-min Rain = 0
KDC1 140835Z 31003KT M01/M02 A3018 RMK A01 T10071018  RH  092%=      5-min Rain = 0
KDC1 140836Z 31003KT M01/M02 A3018 RMK A01 T10071018  RH  092%=      5-min Rain = 0
KDC1 140837Z 31003KT M01/M02 A3019 RMK A01 T10071018  RH  092%=      5-min Rain = 0
KDC1 140838Z 31002KT M01/M02 A3019 RMK A01 T10081018  RH  093%=      5-min Rain = 0
KDC1 140839Z 31002KT M01/M02 A3019 RMK A01 T10081018  RH  093%=      5-min Rain = 0
KDC1 140840Z 31002KT M01/M02 A3019 RMK A01 T10081018  RH  093%=      5-min Rain = 0
KDC1 140841Z 32001KT M01/M02 A3019 RMK A01 T10081018  RH  093%=      5-min Rain = 0
KDC1 140842Z 33001KT M01/M02 A3019 RMK A01 T10081018  RH  093%=      5-min Rain = 0
KDC1 140843Z 33001KT M01/M02 A3019 RMK A01 T10081018  RH  093%=      5-min Rain = 0
KDC1 140844Z 33001KT M01/M02 A3019 RMK A01 T10081018  RH  093%=      5-min Rain = 0
KDC1 140845Z 35001KT M01/M02 A3019 RMK A01 T10081018  RH  093%=      5-min Rain = 0
KDC1 140846Z 35001KT M01/M02 A3019 RMK A01 T10081018  RH  093%=      5-min Rain = 0
KDC1 140847Z 36001KT M01/M02 A3019 RMK A01 T10081018  RH  093%=      5-min Rain = 0
KDC1 140848Z 36000KT M01/M02 A3019 RMK A01 T10071016  RH  094%=      5-min Rain = 0
KDC1 140849Z 35001KT M01/M02 A3019 RMK A01 T10061015  RH  094%=      5-min Rain = 0
KDC1 140850Z 32001KT M01/M02 A3019 RMK A01 T10061016  RH  094%=      5-min Rain = 0
KDC1 140851Z 30001KT M01/M02 A3019 RMK A01 T10061016  RH  093%=      5-min Rain = 0
KDC1 140852Z 30001KT M01/M02 A3019 RMK A01 T10061016  RH  093%=      5-min Rain = 0
KDC1 140853Z 30002KT M01/M02 A3019 RMK A01 T10061016  RH  093%=      5-min Rain = 0
KDC1 140854Z 32001KT M01/M02 A3019 RMK A01 T10061016  RH  093%=      5-min Rain = 0
KDC1 140855Z 30001KT M01/M02 A3019 RMK A01 T10051015  RH  093%=      5-min Rain = 0
KDC1 140856Z 29001KT M01/M02 A3019 RMK A01 T10051015  RH  093%=      5-min Rain = 0
KDC1 140857Z 29001KT M01/M02 A3019 RMK A01 T10051016  RH  093%=      5-min Rain = 0
KDC1 140858Z 29002KT M01/M02 A3019 RMK A01 T10051016  RH  093%=      5-min Rain = 0
KDC1 140859Z 30002KT M00/M02 A3019 RMK A01 T10041015  RH  093%=      5-min Rain = 0
KDC1 140900Z 30002KT M00/M02 A3019 RMK A01 T10041015  RH  092%=      5-min Rain = 0
KDC1 140901Z 29002KT M00/M02 A3019 RMK A01 T10031015  RH  092%=      5-min Rain = 0
KDC1 140902Z 27003KT M00/M02 A3019 RMK A01 T10041016  RH  092%=      5-min Rain = 0
KDC1 140903Z 27003KT M01/M02 A3018 RMK A01 T10051018  RH  091%=      5-min Rain = 0
KDC1 140904Z 27003KT M01/M02 A3018 RMK A01 T10051018  RH  091%=      5-min Rain = 0
KDC1 140905Z 26004KT M01/M02 A3018 RMK A01 T10061018  RH  092%=      5-min Rain = 0
KDC1 140906Z 27004KT M01/M02 A3018 RMK A01 T10061018  RH  092%=      5-min Rain = 0
KDC1 140907Z 27004KT M01/M02 A3018 RMK A01 T10061017  RH  092%=      5-min Rain = 0
KDC1 140908Z 27004KT M01/M02 A3018 RMK A01 T10061018  RH  092%=      5-min Rain = 0
KDC1 140909Z 27004KT M01/M02 A3018 RMK A01 T10061018  RH  092%=      5-min Rain = 0
KDC1 140910Z 27004KT M01/M02 A3018 RMK A01 T10061018  RH  092%=      5-min Rain = 0
KDC1 140911Z 26004KT M01/M02 A3018 RMK A01 T10061018  RH  092%=      5-min Rain = 0
KDC1 140912Z 26004KT M01/M02 A3018 RMK A01 T10061017  RH  092%=      5-min Rain = 0
KDC1 140913Z 27004KT M00/M02 A3018 RMK A01 T10041015  RH  092%=      5-min Rain = 0
KDC1 140914Z 27003KT M00/M01 A3018 RMK A01 T10031014  RH  092%=      5-min Rain = 0
KDC1 140915Z 29003KT M00/M02 A3018 RMK A01 T10041016  RH  091%=      5-min Rain = 0
KDC1 140916Z 28004KT M00/M02 A3018 RMK A01 T10041017  RH  091%=      5-min Rain = 0
KDC1 140917Z 30004KT M01/M02 A3018 RMK A01 T10051019  RH  091%=      5-min Rain = 0
KDC1 140918Z 30004KT M01/M02 A3018 RMK A01 T10071021  RH  090%=      5-min Rain = 0
KDC1 140919Z 30004KT M01/M02 A3018 RMK A01 T10081021  RH  091%=      5-min Rain = 0
KDC1 140920Z 30004KT M01/M02 A3018 RMK A01 T10091022  RH  091%=      5-min Rain = 0
KDC1 140921Z 30004KT M01/M02 A3018 RMK A01 T10091021  RH  092%=      5-min Rain = 0
KDC1 140922Z 30005KT M01/M02 A3018 RMK A01 T10091020  RH  092%=      5-min Rain = 0
KDC1 140923Z 30005KT M01/M02 A3018 RMK A01 T10091021  RH  092%=      5-min Rain = 0
KDC1 140924Z 30005KT M01/M02 A3018 RMK A01 T10081020  RH  092%=      5-min Rain = 0
KDC1 140925Z 30006KT M01/M02 A3018 RMK A01 T10071019  RH  092%=      5-min Rain = 0
KDC1 140926Z 29006KT M01/M02 A3019 RMK A01 T10071018  RH  092%=      5-min Rain = 0
KDC1 140927Z 29006KT M01/M02 A3019 RMK A01 T10071019  RH  091%=      5-min Rain = 0
KDC1 140928Z 29006KT M01/M02 A3019 RMK A01 T10081021  RH  091%=      5-min Rain = 0
KDC1 140929Z 30007KT M01/M02 A3019 RMK A01 T10101023  RH  091%=      5-min Rain = 0
KDC1 140930Z 29006KT M01/M02 A3019 RMK A01 T10101023  RH  091%=      5-min Rain = 0
KDC1 140931Z 29006KT M01/M02 A3019 RMK A01 T10101023  RH  091%=      5-min Rain = 0
KDC1 140932Z 29006KT M01/M02 A3019 RMK A01 T10111023  RH  091%=      5-min Rain = 0
KDC1 140933Z 29006KT M01/M02 A3019 RMK A01 T10111023  RH  092%=      5-min Rain = 0
KDC1 140934Z 29006KT M01/M02 A3018 RMK A01 T10111022  RH  092%=      5-min Rain = 0
KDC1 140935Z 29006KT M01/M02 A3018 RMK A01 T10121023  RH  092%=      5-min Rain = 0
KDC1 140936Z 29006KT M01/M02 A3018 RMK A01 T10121024  RH  092%=      5-min Rain = 0
KDC1 140937Z 29006KT M01/M03 A3018 RMK A01 T10131025  RH  092%=      5-min Rain = 0
KDC1 140938Z 29006KT M01/M03 A3018 RMK A01 T10141025  RH  092%=      5-min Rain = 0
KDC1 140939Z 28006KT M02/M03 A3018 RMK A01 T10151026  RH  092%=      5-min Rain = 0
KDC1 140940Z 28006KT M02/M03 A3019 RMK A01 T10151026  RH  093%=      5-min Rain = 0
KDC1 140941Z 28006KT M02/M03 A3019 RMK A01 T10151025  RH  093%=      5-min Rain = 0
KDC1 140942Z 28006KT M01/M02 A3019 RMK A01 T10141024  RH  093%=      5-min Rain = 0
KDC1 140943Z 27006KT M01/M02 A3019 RMK A01 T10141023  RH  093%=      5-min Rain = 0
KDC1 140944Z 27006KT M01/M02 A3019 RMK A01 T10131022  RH  093%=      5-min Rain = 0
KDC1 140945Z 27006KT M01/M02 A3019 RMK A01 T10131022  RH  093%=      5-min Rain = 0
KDC1 140946Z 26006KT M01/M02 A3019 RMK A01 T10111021  RH  093%=      5-min Rain = 0
KDC1 140947Z 26006KT M01/M02 A3019 RMK A01 T10101020  RH  093%=      5-min Rain = 0
KDC1 140948Z 27006KT M01/M02 A3019 RMK A01 T10091019  RH  093%=      5-min Rain = 0
KDC1 140949Z 27006KT M01/M02 A3019 RMK A01 T10091019  RH  093%=      5-min Rain = 0
KDC1 140950Z 28006KT M01/M02 A3019 RMK A01 T10091019  RH  093%=      5-min Rain = 0
KDC1 140951Z 28005KT M01/M02 A3019 RMK A01 T10091021  RH  092%=      5-min Rain = 0
KDC1 140952Z 28005KT M01/M02 A3019 RMK A01 T10111022  RH  092%=      5-min Rain = 0
KDC1 140953Z 28005KT M01/M02 A3019 RMK A01 T10121024  RH  092%=      5-min Rain = 0
KDC1 140954Z 29005KT M01/M03 A3019 RMK A01 T10131025  RH  092%=      5-min Rain = 0
KDC1 140955Z 29006KT M01/M03 A3019 RMK A01 T10141026  RH  092%=      5-min Rain = 0
KDC1 140956Z 29006KT M02/M03 A3019 RMK A01 T10151025  RH  092%=      5-min Rain = 0
KDC1 140957Z 29007KT M02/M03 A3019 RMK A01 T10151025  RH  093%=      5-min Rain = 0
KDC1 140958Z 29007KT M02/M03 A3019 RMK A01 T10151025  RH  093%=      5-min Rain = 0
KDC1 140959Z 29006KT M02/M03 A3019 RMK A01 T10151025  RH  093%=      5-min Rain = 0
KDC1 141000Z 30006KT M02/M02 A3019 RMK A01 T10151024  RH  093%=      5-min Rain = 0
KDC1 141001Z 30006KT M02/M02 A3019 RMK A01 T10151024  RH  094%=      5-min Rain = 0
KDC1 141002Z 30006KT M02/M02 A3019 RMK A01 T10151024  RH  094%=      5-min Rain = 0
KDC1 141003Z 30006KT M02/M02 A3019 RMK A01 T10151024  RH  094%=      5-min Rain = 0
KDC1 141004Z 30006KT M02/M02 A3019 RMK A01 T10151024  RH  094%=      5-min Rain = 0
KDC1 141005Z 30006KT M02/M02 A3019 RMK A01 T10151024  RH  094%=      5-min Rain = 0
KDC1 141006Z 30006KT M02/M02 A3019 RMK A01 T10151024  RH  094%=      5-min Rain = 0
KDC1 141007Z 30006KT M02/M02 A3019 RMK A01 T10151024  RH  094%=      5-min Rain = 0
KDC1 141008Z 30006KT M02/M02 A3019 RMK A01 T10151024  RH  094%=      5-min Rain = 0
KDC1 141009Z 30006KT M02/M02 A3019 RMK A01 T10151024  RH  094%=      5-min Rain = 0
KDC1 141010Z 30007KT M02/M02 A3019 RMK A01 T10151023  RH  094%=      5-min Rain = 0
KDC1 141011Z 30007KT M01/M02 A3019 RMK A01 T10141023  RH  094%=      5-min Rain = 0
KDC1 141012Z 30007KT M01/M02 A3019 RMK A01 T10141022  RH  094%=      5-min Rain = 0
KDC1 141013Z 29007KT M01/M02 A3019 RMK A01 T10141022  RH  094%=      5-min Rain = 0
KDC1 141014Z 29007KT M01/M02 A3019 RMK A01 T10141022  RH  094%=      5-min Rain = 0
KDC1 141015Z 29007KT M01/M02 A3019 RMK A01 T10131022  RH  094%=      5-min Rain = 0
KDC1 141016Z 29007KT M01/M02 A3019 RMK A01 T10131022  RH  094%=      5-min Rain = 0
KDC1 141017Z 29007KT M01/M02 A3019 RMK A01 T10141022  RH  094%=      5-min Rain = 0
KDC1 141018Z 29007KT M01/M02 A3019 RMK A01 T10141023  RH  094%=      5-min Rain = 0
KDC1 141019Z 29007KT M01/M02 A3019 RMK A01 T10141023  RH  094%=      5-min Rain = 0
KDC1 141020Z 29006KT M02/M02 A3019 RMK A01 T10151024  RH  093%=      5-min Rain = 0
KDC1 141021Z 28006KT M02/M02 A3019 RMK A01 T10151024  RH  094%=      5-min Rain = 0
KDC1 141022Z 28006KT M02/M02 A3019 RMK A01 T10151024  RH  094%=      5-min Rain = 0
KDC1 141023Z 27006KT M02/M02 A3019 RMK A01 T10151024  RH  094%=      5-min Rain = 0
KDC1 141024Z 28006KT M02/M02 A3019 RMK A01 T10151024  RH  094%=      5-min Rain = 0
KDC1 141025Z 28006KT M02/M02 A3019 RMK A01 T10151023  RH  094%=      5-min Rain = 0
KDC1 141026Z 28006KT M01/M02 A3019 RMK A01 T10141022  RH  094%=      5-min Rain = 0
KDC1 141027Z 28006KT M01/M02 A3019 RMK A01 T10141022  RH  094%=      5-min Rain = 0
KDC1 141028Z 28006KT M01/M02 A3019 RMK A01 T10141022  RH  094%=      5-min Rain = 0
KDC1 141029Z 28007KT M01/M02 A3019 RMK A01 T10141023  RH  094%=      5-min Rain = 0
KDC1 141030Z 28006KT M01/M02 A3019 RMK A01 T10141023  RH  093%=      5-min Rain = 0
KDC1 141031Z 28006KT M01/M02 A3019 RMK A01 T10141024  RH  093%=      5-min Rain = 0
KDC1 141032Z 28006KT M02/M02 A3019 RMK A01 T10151024  RH  093%=      5-min Rain = 0
KDC1 141033Z 28006KT M02/M03 A3019 RMK A01 T10151025  RH  093%=      5-min Rain = 0
KDC1 141034Z 28006KT M02/M03 A3019 RMK A01 T10151025  RH  093%=      5-min Rain = 0
KDC1 141035Z 28006KT M02/M03 A3019 RMK A01 T10161025  RH  093%=      5-min Rain = 0
KDC1 141036Z 28006KT M02/M03 A3019 RMK A01 T10161026  RH  093%=      5-min Rain = 0
KDC1 141037Z 28006KT M02/M03 A3019 RMK A01 T10161026  RH  093%=      5-min Rain = 0
KDC1 141038Z 28006KT M02/M03 A3019 RMK A01 T10161026  RH  093%=      5-min Rain = 0
KDC1 141039Z 29007KT M02/M03 A3019 RMK A01 T10171026  RH  093%=      5-min Rain = 0
KDC1 141040Z 29007KT M02/M03 A3019 RMK A01 T10161026  RH  093%=      5-min Rain = 0
KDC1 141041Z 29007KT M02/M03 A3019 RMK A01 T10161025  RH  094%=      5-min Rain = 0
KDC1 141042Z 29007KT M02/M02 A3019 RMK A01 T10151024  RH  094%=      5-min Rain = 0
KDC1 141043Z 29007KT M02/M02 A3019 RMK A01 T10151024  RH  094%=      5-min Rain = 0
KDC1 141044Z 29007KT M02/M02 A3019 RMK A01 T10151024  RH  094%=      5-min Rain = 0
KDC1 141045Z 29007KT M02/M02 A3019 RMK A01 T10151024  RH  093%=      5-min Rain = 0
KDC1 141046Z 29007KT M01/M02 A3019 RMK A01 T10141024  RH  093%=      5-min Rain = 0
KDC1 141047Z 29007KT M01/M02 A3019 RMK A01 T10141024  RH  093%=      5-min Rain = 0
KDC1 141048Z 30007KT M01/M02 A3019 RMK A01 T10141024  RH  093%=      5-min Rain = 0
KDC1 141049Z 30007KT M02/M03 A3019 RMK A01 T10151025  RH  093%=      5-min Rain = 0
KDC1 141050Z 29006KT M02/M03 A3019 RMK A01 T10151026  RH  093%=      5-min Rain = 0
KDC1 141051Z 29006KT M02/M03 A3019 RMK A01 T10161027  RH  092%=      5-min Rain = 0
KDC1 141052Z 30006KT M02/M03 A3019 RMK A01 T10171028  RH  092%=      5-min Rain = 0
KDC1 141053Z 29006KT M02/M03 A3019 RMK A01 T10181029  RH  092%=      5-min Rain = 0
KDC1 141054Z 29006KT M02/M03 A3019 RMK A01 T10191029  RH  093%=      5-min Rain = 0
KDC1 141055Z 30006KT M02/M03 A3019 RMK A01 T10191029  RH  093%=      5-min Rain = 0
KDC1 141056Z 30006KT M02/M03 A3019 RMK A01 T10191029  RH  093%=      5-min Rain = 0
KDC1 141057Z 30006KT M02/M03 A3019 RMK A01 T10191029  RH  093%=      5-min Rain = 0
KDC1 141058Z 30006KT M02/M03 A3019 RMK A01 T10201030  RH  093%=      5-min Rain = 0
KDC1 141059Z 30005KT M02/M03 A3019 RMK A01 T10201030  RH  093%=      5-min Rain = 0
KDC1 141100Z 30005KT M02/M03 A3019 RMK A01 T10211031  RH  093%=      5-min Rain = 0
KDC1 141101Z 30006KT M02/M03 A3019 RMK A01 T10211031  RH  093%=      5-min Rain = 0
KDC1 141102Z 30006KT M02/M03 A3019 RMK A01 T10211031  RH  093%=      5-min Rain = 0
KDC1 141103Z 30006KT M02/M03 A3019 RMK A01 T10221031  RH  093%=      5-min Rain = 0
KDC1 141104Z 30006KT M02/M03 A3019 RMK A01 T10221031  RH  093%=      5-min Rain = 0
KDC1 141105Z 30006KT M02/M03 A3019 RMK A01 T10221031  RH  094%=      5-min Rain = 0
KDC1 141106Z 30006KT M02/M03 A3019 RMK A01 T10231032  RH  094%=      5-min Rain = 0
KDC1 141107Z 30006KT M02/M03 A3019 RMK A01 T10231032  RH  094%=      5-min Rain = 0
KDC1 141108Z 30006KT M02/M03 A3019 RMK A01 T10231032  RH  094%=      5-min Rain = 0
KDC1 141109Z 30006KT M02/M03 A3019 RMK A01 T10231032  RH  094%=      5-min Rain = 0
KDC1 141110Z 30006KT M02/M03 A3019 RMK A01 T10241032  RH  094%=      5-min Rain = 0
KDC1 141111Z 31006KT M02/M03 A3019 RMK A01 T10241032  RH  094%=      5-min Rain = 0
KDC1 141112Z 31006KT M02/M03 A3019 RMK A01 T10231031  RH  094%=      5-min Rain = 0
KDC1 141113Z 31006KT M02/M03 A3019 RMK A01 T10231031  RH  094%=      5-min Rain = 0
KDC1 141114Z 31006KT M02/M03 A3019 RMK A01 T10221030  RH  094%=      5-min Rain = 0
KDC1 141115Z 31006KT M02/M03 A3019 RMK A01 T10221030  RH  094%=      5-min Rain = 0
KDC1 141116Z 32006KT M02/M03 A3019 RMK A01 T10211028  RH  095%=      5-min Rain = 0
KDC1 141117Z 32005KT M02/M03 A3019 RMK A01 T10201027  RH  095%=      5-min Rain = 0
KDC1 141118Z 32005KT M02/M03 A3019 RMK A01 T10191027  RH  095%=      5-min Rain = 0
KDC1 141119Z 32005KT M02/M03 A3019 RMK A01 T10191027  RH  094%=      5-min Rain = 0
KDC1 141120Z 32005KT M02/M03 A3019 RMK A01 T10191027  RH  094%=      5-min Rain = 0
KDC1 141121Z 33005KT M02/M03 A3019 RMK A01 T10191027  RH  094%=      5-min Rain = 0
KDC1 141122Z 33005KT M02/M03 A3019 RMK A01 T10191028  RH  094%=      5-min Rain = 0
KDC1 141123Z 32005KT M02/M03 A3019 RMK A01 T10191028  RH  094%=      5-min Rain = 0
KDC1 141124Z 32005KT M02/M03 A302 RMK A01 T10191028  RH  094%=      5-min Rain = 0
KDC1 141125Z 31005KT M02/M03 A302 RMK A01 T10191028  RH  094%=      5-min Rain = 0
KDC1 141126Z 30005KT M02/M03 A302 RMK A01 T10201029  RH  094%=      5-min Rain = 0
KDC1 141127Z 31006KT M02/M03 A302 RMK A01 T10211030  RH  093%=      5-min Rain = 0
KDC1 141128Z 32006KT M02/M03 A302 RMK A01 T10211031  RH  093%=      5-min Rain = 0
KDC1 141129Z 32006KT M02/M03 A302 RMK A01 T10221031  RH  094%=      5-min Rain = 0
KDC1 141130Z 33006KT M02/M03 A302 RMK A01 T10211030  RH  094%=      5-min Rain = 0
KDC1 141131Z 32006KT M02/M03 A302 RMK A01 T10211029  RH  094%=      5-min Rain = 0
KDC1 141132Z 33005KT M02/M03 A302 RMK A01 T10211029  RH  094%=      5-min Rain = 0
KDC1 141133Z 33005KT M02/M03 A302 RMK A01 T10211029  RH  094%=      5-min Rain = 0
KDC1 141134Z 33006KT M02/M03 A302 RMK A01 T10211030  RH  094%=      5-min Rain = 0
KDC1 141135Z 33005KT M02/M03 A302 RMK A01 T10221030  RH  094%=      5-min Rain = 0
KDC1 141136Z 34005KT M02/M03 A302 RMK A01 T10221030  RH  094%=      5-min Rain = 0
KDC1 141137Z 34005KT M02/M03 A302 RMK A01 T10221030  RH  094%=      5-min Rain = 0
KDC1 141138Z 34005KT M02/M03 A302 RMK A01 T10221029  RH  094%=      5-min Rain = 0
KDC1 141139Z 35005KT M02/M03 A302 RMK A01 T10211029  RH  095%=      5-min Rain = 0
KDC1 141140Z 35005KT M02/M03 A302 RMK A01 T10211028  RH  095%=      5-min Rain = 0
KDC1 141141Z 35005KT M02/M03 A302 RMK A01 T10211028  RH  095%=      5-min Rain = 0
KDC1 141142Z 35006KT M02/M03 A302 RMK A01 T10211029  RH  094%=      5-min Rain = 0
KDC1 141143Z 35006KT M02/M03 A302 RMK A01 T10211029  RH  094%=      5-min Rain = 0
KDC1 141144Z 35006KT M02/M03 A302 RMK A01 T10211029  RH  094%=      5-min Rain = 0
KDC1 141145Z 00006KT M02/M03 A302 RMK A01 T10211029  RH  094%=      5-min Rain = 0
KDC1 141146Z 00006KT M02/M03 A302 RMK A01 T10211029  RH  094%=      5-min Rain = 0
KDC1 141147Z 00006KT M02/M03 A302 RMK A01 T10211028  RH  094%=      5-min Rain = 0
KDC1 141148Z 00005KT M02/M03 A302 RMK A01 T10201028  RH  095%=      5-min Rain = 0
KDC1 141149Z 00006KT M02/M03 A302 RMK A01 T10201027  RH  095%=      5-min Rain = 0
KDC1 141150Z 36005KT M02/M03 A302 RMK A01 T10191027  RH  095%=      5-min Rain = 0
KDC1 141151Z 35004KT M02/M03 A302 RMK A01 T10191027  RH  095%=      5-min Rain = 0
KDC1 141152Z 35003KT M02/M03 A302 RMK A01 T10191027  RH  094%=      5-min Rain = 0
KDC1 141153Z 35003KT M02/M03 A302 RMK A01 T10201028  RH  094%=      5-min Rain = 0
KDC1 141154Z 35003KT M02/M03 A302 RMK A01 T10211030  RH  094%=      5-min Rain = 0
KDC1 141155Z 35004KT M02/M03 A302 RMK A01 T10221031  RH  094%=      5-min Rain = 0
KDC1 141156Z 34004KT M02/M03 A302 RMK A01 T10221031  RH  094%=      5-min Rain = 0
KDC1 141157Z 34004KT M02/M03 A302 RMK A01 T10231031  RH  094%=      5-min Rain = 0
KDC1 141158Z 34004KT M02/M03 A302 RMK A01 T10231031  RH  094%=      5-min Rain = 0
KDC1 141159Z 34004KT M02/M03 A302 RMK A01 T10231031  RH  094%=      5-min Rain = 0
KDC1 141200Z 34004KT M02/M03 A302 RMK A01 T10221030  RH  094%=      5-min Rain = 0
KDC1 141201Z 33004KT M02/M03 A302 RMK A01 T10221030  RH  094%=      5-min Rain = 0
KDC1 141202Z 33003KT M02/M03 A302 RMK A01 T10221030  RH  094%=      5-min Rain = 0
KDC1 141203Z 33003KT M02/M03 A302 RMK A01 T10221030  RH  094%=      5-min Rain = 0
KDC1 141204Z 32004KT M02/M03 A302 RMK A01 T10221031  RH  094%=      5-min Rain = 0
KDC1 141205Z 32004KT M02/M03 A302 RMK A01 T10231031  RH  094%=      5-min Rain = 0
KDC1 141206Z 32005KT M02/M03 A302 RMK A01 T10231031  RH  094%=      5-min Rain = 0
KDC1 141207Z 32005KT M02/M03 A302 RMK A01 T10231032  RH  094%=      5-min Rain = 0
KDC1 141208Z 32005KT M02/M03 A302 RMK A01 T10241032  RH  094%=      5-min Rain = 0
KDC1 141209Z 32005KT M03/M03 A302 RMK A01 T10251033  RH  094%=      5-min Rain = 0
KDC1 141210Z 32006KT M03/M03 A302 RMK A01 T10251034  RH  094%=      5-min Rain = 0
KDC1 141211Z 32006KT M03/M03 A302 RMK A01 T10261034  RH  094%=      5-min Rain = 0
KDC1 141212Z 32006KT M03/M04 A302 RMK A01 T10271035  RH  094%=      5-min Rain = 0
KDC1 141213Z 32006KT M03/M04 A302 RMK A01 T10271035  RH  094%=      5-min Rain = 0
KDC1 141214Z 32006KT M03/M04 A302 RMK A01 T10271035  RH  094%=      5-min Rain = 0
KDC1 141215Z 31006KT M03/M04 A302 RMK A01 T10281036  RH  094%=      5-min Rain = 0
KDC1 141216Z 32006KT M03/M04 A302 RMK A01 T10281037  RH  094%=      5-min Rain = 0
KDC1 141217Z 32006KT M03/M04 A302 RMK A01 T10281036  RH  094%=      5-min Rain = 0
KDC1 141218Z 32006KT M03/M03 A302 RMK A01 T10261033  RH  095%=      5-min Rain = 0
KDC1 141219Z 32006KT M02/M03 A302 RMK A01 T10241030  RH  095%=      5-min Rain = 0
KDC1 141220Z 31006KT M02/M03 A302 RMK A01 T10231029  RH  096%=      5-min Rain = 0
KDC1 141221Z 31006KT M02/M03 A302 RMK A01 T10221028  RH  095%=      5-min Rain = 0
KDC1 141222Z 31005KT M02/M03 A302 RMK A01 T10221029  RH  095%=      5-min Rain = 0
KDC1 141223Z 31005KT M02/M03 A302 RMK A01 T10231031  RH  094%=      5-min Rain = 0
KDC1 141224Z 31005KT M03/M03 A302 RMK A01 T10251034  RH  094%=      5-min Rain = 0
KDC1 141225Z 31005KT M03/M04 A302 RMK A01 T10271036  RH  094%=      5-min Rain = 0
KDC1 141226Z 31006KT M03/M04 A302 RMK A01 T10271036  RH  094%=      5-min Rain = 0
KDC1 141227Z 30006KT M03/M04 A302 RMK A01 T10281036  RH  094%=      5-min Rain = 0
KDC1 141228Z 30006KT M03/M04 A302 RMK A01 T10281036  RH  094%=      5-min Rain = 0
KDC1 141229Z 30006KT M03/M04 A302 RMK A01 T10281035  RH  094%=      5-min Rain = 0
KDC1 141230Z 30005KT M03/M04 A302 RMK A01 T10271035  RH  095%=      5-min Rain = 0
KDC1 141231Z 30006KT M03/M03 A302 RMK A01 T10271034  RH  095%=      5-min Rain = 0
KDC1 141232Z 30006KT M03/M03 A302 RMK A01 T10261033  RH  095%=      5-min Rain = 0
KDC1 141233Z 30006KT M03/M03 A302 RMK A01 T10261033  RH  095%=      5-min Rain = 0
KDC1 141234Z 29006KT M03/M03 A302 RMK A01 T10271034  RH  095%=      5-min Rain = 0
KDC1 141235Z 30006KT M03/M04 A302 RMK A01 T10281035  RH  095%=      5-min Rain = 0
KDC1 141236Z 29006KT M03/M04 A302 RMK A01 T10281036  RH  095%=      5-min Rain = 0
KDC1 141237Z 29006KT M03/M04 A302 RMK A01 T10291037  RH  095%=      5-min Rain = 0
KDC1 141238Z 28006KT M03/M04 A302 RMK A01 T10291037  RH  095%=      5-min Rain = 0
KDC1 141239Z 28006KT M03/M04 A302 RMK A01 T10291036  RH  095%=      5-min Rain = 0
KDC1 141240Z 28006KT M03/M04 A302 RMK A01 T10291036  RH  095%=      5-min Rain = 0
KDC1 141241Z 28006KT M03/M04 A302 RMK A01 T10291036  RH  095%=      5-min Rain = 0
KDC1 141242Z 28006KT M03/M04 A302 RMK A01 T10291035  RH  095%=      5-min Rain = 0
KDC1 141243Z 28006KT M03/M03 A302 RMK A01 T10271034  RH  095%=      5-min Rain = 0
KDC1 141244Z 27006KT M03/M03 A302 RMK A01 T10261033  RH  095%=      5-min Rain = 0
KDC1 141245Z 27006KT M03/M03 A302 RMK A01 T10251031  RH  096%=      5-min Rain = 0
KDC1 141246Z 27005KT M02/M03 A302 RMK A01 T10241031  RH  095%=      5-min Rain = 0
KDC1 141247Z 27005KT M02/M03 A302 RMK A01 T10231030  RH  095%=      5-min Rain = 0
KDC1 141248Z 27005KT M02/M03 A302 RMK A01 T10221029  RH  095%=      5-min Rain = 0
KDC1 141249Z 27005KT M02/M03 A302 RMK A01 T10221029  RH  095%=      5-min Rain = 0
KDC1 141250Z 27005KT M02/M03 A302 RMK A01 T10221029  RH  095%=      5-min Rain = 0
KDC1 141251Z 27005KT M02/M03 A302 RMK A01 T10221029  RH  095%=      5-min Rain = 0
KDC1 141252Z 27005KT M02/M03 A302 RMK A01 T10211029  RH  094%=      5-min Rain = 0
KDC1 141253Z 27006KT M02/M03 A302 RMK A01 T10211029  RH  094%=      5-min Rain = 0
KDC1 141254Z 27006KT M02/M03 A302 RMK A01 T10211029  RH  094%=      5-min Rain = 0
KDC1 141255Z 26006KT M02/M03 A302 RMK A01 T10201029  RH  094%=      5-min Rain = 0
KDC1 141256Z 26005KT M02/M03 A3021 RMK A01 T10211029  RH  094%=      5-min Rain = 0
KDC1 141257Z 27006KT M02/M03 A3021 RMK A01 T10211029  RH  094%=      5-min Rain = 0
KDC1 141258Z 27005KT M02/M03 A3021 RMK A01 T10201029  RH  094%=      5-min Rain = 0
KDC1 141259Z 27006KT M02/M03 A3021 RMK A01 T10201029  RH  094%=      5-min Rain = 0
KDC1 141300Z 27006KT M02/M03 A3021 RMK A01 T10201029  RH  094%=      5-min Rain = 0
KDC1 141301Z 27006KT M02/M03 A3021 RMK A01 T10201029  RH  094%=      5-min Rain = 0
KDC1 141302Z 27006KT M02/M03 A3021 RMK A01 T10201029  RH  094%=      5-min Rain = 0
KDC1 141303Z 27006KT M02/M03 A3021 RMK A01 T10201029  RH  093%=      5-min Rain = 0
KDC1 141304Z 27007KT M02/M03 A3021 RMK A01 T10201029  RH  093%=      5-min Rain = 0
KDC1 141305Z 27007KT M02/M03 A3021 RMK A01 T10211030  RH  093%=      5-min Rain = 0
KDC1 141306Z 27007KT M02/M03 A3021 RMK A01 T10211031  RH  093%=      5-min Rain = 0
KDC1 141307Z 27006KT M02/M03 A3021 RMK A01 T10221032  RH  093%=      5-min Rain = 0
KDC1 141308Z 27006KT M02/M03 A3021 RMK A01 T10231033  RH  093%=      5-min Rain = 0
KDC1 141309Z 26005KT M02/M03 A3021 RMK A01 T10231033  RH  093%=      5-min Rain = 0
KDC1 141310Z 26005KT M02/M03 A3021 RMK A01 T10231031  RH  094%=      5-min Rain = 0
KDC1 141311Z 26005KT M02/M03 A3021 RMK A01 T10221030  RH  094%=      5-min Rain = 0
KDC1 141312Z 27006KT M02/M03 A3021 RMK A01 T10211029  RH  094%=      5-min Rain = 0
KDC1 141313Z 27006KT M02/M03 A302 RMK A01 T10201028  RH  094%=      5-min Rain = 0
KDC1 141314Z 27005KT M02/M03 A302 RMK A01 T10191027  RH  094%=      5-min Rain = 0
KDC1 141315Z 27005KT M02/M03 A302 RMK A01 T10191028  RH  094%=      5-min Rain = 0
KDC1 141316Z 27005KT M02/M03 A302 RMK A01 T10191028  RH  094%=      5-min Rain = 0
KDC1 141317Z 27004KT M02/M03 A302 RMK A01 T10201029  RH  093%=      5-min Rain = 0
KDC1 141318Z 27004KT M02/M03 A302 RMK A01 T10201029  RH  093%=      5-min Rain = 0
KDC1 141319Z 27005KT M02/M03 A302 RMK A01 T10201030  RH  093%=      5-min Rain = 0
KDC1 141320Z 27005KT M02/M03 A302 RMK A01 T10211030  RH  093%=      5-min Rain = 0
KDC1 141321Z 27006KT M02/M03 A302 RMK A01 T10211031  RH  093%=      5-min Rain = 0
KDC1 141322Z 27005KT M02/M03 A3021 RMK A01 T10211031  RH  093%=      5-min Rain = 0
KDC1 141323Z 27005KT M02/M03 A3021 RMK A01 T10211031  RH  093%=      5-min Rain = 0
KDC1 141324Z 27005KT M02/M03 A3021 RMK A01 T10221031  RH  093%=      5-min Rain = 0
KDC1 141325Z 27006KT M02/M03 A3021 RMK A01 T10221032  RH  093%=      5-min Rain = 0
KDC1 141326Z 27006KT M02/M03 A3021 RMK A01 T10221032  RH  093%=      5-min Rain = 0
KDC1 141327Z 27006KT M02/M03 A3021 RMK A01 T10221031  RH  094%=      5-min Rain = 0
KDC1 141328Z 27006KT M02/M03 A3021 RMK A01 T10211030  RH  094%=      5-min Rain = 0
KDC1 141329Z 27006KT M02/M03 A3021 RMK A01 T10201029  RH  094%=      5-min Rain = 0
KDC1 141330Z 27005KT M02/M03 A3021 RMK A01 T10191028  RH  094%=      5-min Rain = 0
KDC1 141331Z 27006KT M02/M03 A3021 RMK A01 T10181027  RH  094%=      5-min Rain = 0
KDC1 141332Z 27006KT M02/M03 A3021 RMK A01 T10171027  RH  093%=      5-min Rain = 0
KDC1 141333Z 26006KT M02/M03 A302 RMK A01 T10161026  RH  093%=      5-min Rain = 0
KDC1 141334Z 26005KT M02/M03 A302 RMK A01 T10151025  RH  093%=      5-min Rain = 0
KDC1 141335Z 27005KT M02/M03 A302 RMK A01 T10161026  RH  093%=      5-min Rain = 0
KDC1 141336Z 27005KT M02/M03 A302 RMK A01 T10151026  RH  092%=      5-min Rain = 0
KDC1 141337Z 28005KT M02/M03 A302 RMK A01 T10151027  RH  092%=      5-min Rain = 0
KDC1 141338Z 28005KT M02/M03 A302 RMK A01 T10161027  RH  092%=      5-min Rain = 0
KDC1 141339Z 28004KT M02/M03 A302 RMK A01 T10161028  RH  092%=      5-min Rain = 0
KDC1 141340Z 28005KT M02/M03 A302 RMK A01 T10171029  RH  091%=      5-min Rain = 0
KDC1 141341Z 28004KT M02/M03 A302 RMK A01 T10181030  RH  091%=      5-min Rain = 0
KDC1 141342Z 28004KT M02/M03 A302 RMK A01 T10181031  RH  091%=      5-min Rain = 0
KDC1 141343Z 28004KT M02/M03 A302 RMK A01 T10191031  RH  092%=      5-min Rain = 0
KDC1 141344Z 28003KT M02/M03 A3021 RMK A01 T10201031  RH  092%=      5-min Rain = 0
KDC1 141345Z 29003KT M02/M03 A3021 RMK A01 T10201031  RH  092%=      5-min Rain = 0
KDC1 141346Z 29003KT M02/M03 A3021 RMK A01 T10201032  RH  092%=      5-min Rain = 0
KDC1 141347Z 29003KT M02/M03 A3021 RMK A01 T10211032  RH  092%=      5-min Rain = 0
KDC1 141348Z 28003KT M02/M03 A3021 RMK A01 T10221033  RH  092%=      5-min Rain = 0
KDC1 141349Z 28004KT M02/M03 A3021 RMK A01 T10231034  RH  092%=      5-min Rain = 0
KDC1 141350Z 28004KT M02/M03 A3021 RMK A01 T10231033  RH  092%=      5-min Rain = 0
KDC1 141351Z 29004KT M02/M03 A3021 RMK A01 T10231034  RH  092%=      5-min Rain = 0
KDC1 141352Z 29004KT M02/M03 A3021 RMK A01 T10231034  RH  093%=      5-min Rain = 0
KDC1 141353Z 30004KT M02/M03 A3021 RMK A01 T10241034  RH  093%=      5-min Rain = 0
KDC1 141354Z 30004KT M02/M03 A3022 RMK A01 T10241034  RH  093%=      5-min Rain = 0
KDC1 141355Z 30004KT M02/M03 A3022 RMK A01 T10231034  RH  093%=      5-min Rain = 0
KDC1 141356Z 31004KT M02/M03 A3022 RMK A01 T10241034  RH  093%=      5-min Rain = 0
KDC1 141357Z 31003KT M02/M03 A3022 RMK A01 T10241034  RH  093%=      5-min Rain = 0
KDC1 141358Z 31004KT M02/M03 A3022 RMK A01 T10241034  RH  093%=      5-min Rain = 0
KDC1 141359Z 31004KT M02/M03 A3022 RMK A01 T10241034  RH  093%=      5-min Rain = 0
KDC1 141400Z 30004KT M02/M03 A3022 RMK A01 T10241034  RH  093%=      5-min Rain = 0
KDC1 141401Z 30004KT M02/M03 A3022 RMK A01 T10241034  RH  093%=      5-min Rain = 0
KDC1 141402Z 30004KT M02/M03 A3022 RMK A01 T10231033  RH  093%=      5-min Rain = 0
KDC1 141403Z 30004KT M02/M03 A3022 RMK A01 T10231033  RH  093%=      5-min Rain = 0
KDC1 141404Z 30004KT M02/M03 A3022 RMK A01 T10221033  RH  093%=      5-min Rain = 0
KDC1 141405Z 30004KT M02/M03 A3022 RMK A01 T10221031  RH  093%=      5-min Rain = 0
KDC1 141406Z 30004KT M02/M03 A3022 RMK A01 T10211031  RH  093%=      5-min Rain = 0
KDC1 141407Z 31005KT M02/M03 A3022 RMK A01 T10211031  RH  093%=      5-min Rain = 0
KDC1 141408Z 31005KT M02/M03 A3022 RMK A01 T10201030  RH  093%=      5-min Rain = 0
KDC1 141409Z 31005KT M02/M03 A3022 RMK A01 T10201030  RH  093%=      5-min Rain = 0
KDC1 141410Z 32005KT M02/M03 A3022 RMK A01 T10191030  RH  093%=      5-min Rain = 0
KDC1 141411Z 32005KT M02/M03 A3022 RMK A01 T10191029  RH  093%=      5-min Rain = 0
KDC1 141412Z 33004KT M02/M03 A3022 RMK A01 T10191029  RH  093%=      5-min Rain = 0
KDC1 141413Z 33004KT M02/M03 A3022 RMK A01 T10181029  RH  093%=      5-min Rain = 0
KDC1 141414Z 33004KT M02/M03 A3022 RMK A01 T10181028  RH  093%=      5-min Rain = 0
KDC1 141415Z 34004KT M02/M03 A3022 RMK A01 T10181028  RH  093%=      5-min Rain = 0
KDC1 141416Z 34004KT M02/M03 A3022 RMK A01 T10181028  RH  093%=      5-min Rain = 0
KDC1 141417Z 33004KT M02/M03 A3022 RMK A01 T10171027  RH  093%=      5-min Rain = 0
KDC1 141418Z 33003KT M02/M03 A3022 RMK A01 T10161027  RH  093%=      5-min Rain = 0
KDC1 141419Z 33003KT M02/M03 A3022 RMK A01 T10151026  RH  092%=      5-min Rain = 0
KDC1 141420Z 33003KT M02/M03 A3022 RMK A01 T10151026  RH  092%=      5-min Rain = 0
KDC1 141421Z 33003KT M02/M03 A3022 RMK A01 T10151026  RH  092%=      5-min Rain = 0
KDC1 141422Z 33003KT M02/M03 A3022 RMK A01 T10151026  RH  092%=      5-min Rain = 0
KDC1 141423Z 33003KT M02/M03 A3022 RMK A01 T10151026  RH  092%=      5-min Rain = 0
KDC1 141424Z 32002KT M01/M03 A3022 RMK A01 T10141025  RH  092%=      5-min Rain = 0
KDC1 141425Z 31002KT M01/M03 A3022 RMK A01 T10141025  RH  092%=      5-min Rain = 0
KDC1 141426Z 31003KT M01/M03 A3022 RMK A01 T10141025  RH  092%=      5-min Rain = 0
KDC1 141427Z 31003KT M01/M03 A3022 RMK A01 T10141025  RH  092%=      5-min Rain = 0
KDC1 141428Z 31002KT M01/M03 A3022 RMK A01 T10141025  RH  092%=      5-min Rain = 0
KDC1 141429Z 30002KT M01/M03 A3022 RMK A01 T10141025  RH  092%=      5-min Rain = 0
KDC1 141430Z 30002KT M01/M02 A3022 RMK A01 T10131024  RH  092%=      5-min Rain = 0
KDC1 141431Z 30002KT M01/M02 A3022 RMK A01 T10131024  RH  092%=      5-min Rain = 0
KDC1 141432Z 30002KT M01/M02 A3022 RMK A01 T10121023  RH  092%=      5-min Rain = 0
KDC1 141433Z 31002KT M01/M02 A3022 RMK A01 T10111023  RH  092%=      5-min Rain = 0
KDC1 141434Z 29002KT M01/M02 A3022 RMK A01 T10101021  RH  092%=      5-min Rain = 0
KDC1 141435Z 27002KT M01/M02 A3022 RMK A01 T10091021  RH  092%=      5-min Rain = 0
KDC1 141436Z 26001KT M01/M02 A3022 RMK A01 T10091021  RH  092%=      5-min Rain = 0
KDC1 141437Z 27001KT M01/M02 A3022 RMK A01 T10081020  RH  092%=      5-min Rain = 0
KDC1 141438Z 29001KT M01/M02 A3022 RMK A01 T10071019  RH  092%=      5-min Rain = 0
KDC1 141439Z 33001KT M01/M02 A3022 RMK A01 T10071018  RH  092%=      5-min Rain = 0
KDC1 141440Z 34002KT M01/M02 A3022 RMK A01 T10061019  RH  091%=      5-min Rain = 0
KDC1 141441Z 34003KT M01/M02 A3022 RMK A01 T10051018  RH  091%=      5-min Rain = 0
KDC1 141442Z 35003KT M00/M02 A3022 RMK A01 T10041016  RH  091%=      5-min Rain = 0
KDC1 141443Z 35003KT M00/M02 A3022 RMK A01 T10021016  RH  091%=      5-min Rain = 0
KDC1 141444Z 34003KT M00/M02 A3022 RMK A01 T10011016  RH  090%=      5-min Rain = 0
KDC1 141445Z 34003KT M00/M02 A3022 RMK A01 T10011015  RH  090%=      5-min Rain = 0
KDC1 141446Z 33003KT 00/02 A3022 RMK A01 T00000-15  RH  089%=      5-min Rain = 0
KDC1 141447Z 33003KT 00/02 A3023 RMK A01 T00000-16  RH  089%=      5-min Rain = 0
KDC1 141448Z 33004KT 00/M02 A3023 RMK A01 T00011016  RH  089%=      5-min Rain = 0
KDC1 141449Z 32002KT 00/M02 A3023 RMK A01 T00011016  RH  089%=      5-min Rain = 0
KDC1 141450Z 33003KT 00/M01 A3023 RMK A01 T00021014  RH  089%=      5-min Rain = 0
KDC1 141451Z 32003KT 00/M01 A3023 RMK A01 T00021014  RH  089%=      5-min Rain = 0
KDC1 141452Z 33003KT 00/M01 A3023 RMK A01 T00031013  RH  089%=      5-min Rain = 0
KDC1 141453Z 33003KT 00/M01 A3023 RMK A01 T00041012  RH  089%=      5-min Rain = 0
KDC1 141454Z 33003KT 00/M01 A3023 RMK A01 T00041012  RH  089%=      5-min Rain = 0
KDC1 141455Z 33003KT 01/M01 A3023 RMK A01 T00051011  RH  089%=      5-min Rain = 0
KDC1 141456Z 33002KT 01/M01 A3023 RMK A01 T00061009  RH  090%=      5-min Rain = 0
KDC1 141457Z 33003KT 01/M01 A3023 RMK A01 T00081007  RH  090%=      5-min Rain = 0
KDC1 141458Z 33003KT 01/M01 A3023 RMK A01 T00091006  RH  089%=      5-min Rain = 0
KDC1 141459Z 34004KT 01/M01 A3023 RMK A01 T00101007  RH  088%=      5-min Rain = 0
KDC1 141500Z 35003KT 01/M01 A3023 RMK A01 T00121007  RH  087%=      5-min Rain = 0
KDC1 141501Z 35003KT 01/M01 A3023 RMK A01 T00131007  RH  087%=      5-min Rain = 0
KDC1 141502Z 00003KT 02/M01 A3023 RMK A01 T00151006  RH  086%=      5-min Rain = 0
KDC1 141503Z 36003KT 02/M01 A3023 RMK A01 T00151007  RH  085%=      5-min Rain = 0
KDC1 141504Z 00003KT 02/M01 A3023 RMK A01 T00161007  RH  085%=      5-min Rain = 0
KDC1 141505Z 02004KT 02/M01 A3023 RMK A01 T00171006  RH  085%=      5-min Rain = 0
KDC1 141506Z 03004KT 02/M01 A3023 RMK A01 T00171005  RH  085%=      5-min Rain = 0
KDC1 141507Z 03004KT 02/M01 A3023 RMK A01 T00161006  RH  085%=      5-min Rain = 0
KDC1 141508Z 03003KT 02/M01 A3023 RMK A01 T00151006  RH  086%=      5-min Rain = 0
KDC1 141509Z 02004KT 02/M01 A3023 RMK A01 T00151005  RH  086%=      5-min Rain = 0
KDC1 141510Z 02004KT 01/M01 A3024 RMK A01 T00131008  RH  086%=      5-min Rain = 0
KDC1 141511Z 02004KT 01/M01 A3024 RMK A01 T00121008  RH  086%=      5-min Rain = 0
KDC1 141512Z 02004KT 01/M01 A3024 RMK A01 T00111009  RH  086%=      5-min Rain = 0
KDC1 141513Z 01004KT 01/M01 A3024 RMK A01 T00111009  RH  087%=      5-min Rain = 0
KDC1 141514Z 02004KT 01/M01 A3024 RMK A01 T00101010  RH  087%=      5-min Rain = 0
KDC1 141515Z 02004KT 01/M01 A3024 RMK A01 T00101009  RH  087%=      5-min Rain = 0
KDC1 141516Z 02004KT 01/M01 A3024 RMK A01 T00101011  RH  086%=      5-min Rain = 0
KDC1 141517Z 01003KT 01/M01 A3024 RMK A01 T00101009  RH  087%=      5-min Rain = 0
KDC1 141518Z 02003KT 01/M01 A3024 RMK A01 T00111008  RH  088%=      5-min Rain = 0
KDC1 141519Z 03002KT 01/M01 A3024 RMK A01 T00111007  RH  088%=      5-min Rain = 0
KDC1 141520Z 03003KT 01/M01 A3024 RMK A01 T00111007  RH  088%=      5-min Rain = 0
KDC1 141521Z 03003KT 01/M01 A3024 RMK A01 T00121006  RH  088%=      5-min Rain = 0
KDC1 141522Z 03003KT 01/M01 A3024 RMK A01 T00121008  RH  087%=      5-min Rain = 0
KDC1 141523Z 03003KT 01/M01 A3024 RMK A01 T00121010  RH  086%=      5-min Rain = 0
KDC1 141524Z 04002KT 01/M01 A3024 RMK A01 T00121009  RH  086%=      5-min Rain = 0
KDC1 141525Z 03003KT 01/M01 A3024 RMK A01 T00131008  RH  086%=      5-min Rain = 0
KDC1 141526Z 04002KT 01/M01 A3024 RMK A01 T00131009  RH  085%=      5-min Rain = 0
KDC1 141527Z 05002KT 01/M01 A3024 RMK A01 T00141008  RH  085%=      5-min Rain = 0
KDC1 141528Z 03002KT 02/M01 A3024 RMK A01 T00161005  RH  086%=      5-min Rain = 0
KDC1 141529Z 04002KT 02/M00 A3024 RMK A01 T00181004  RH  085%=      5-min Rain = 0
KDC1 141530Z 03002KT 02/M00 A3024 RMK A01 T00191004  RH  085%=      5-min Rain = 0
KDC1 141531Z 04002KT 02/M01 A3024 RMK A01 T00191006  RH  083%=      5-min Rain = 0
KDC1 141532Z 05002KT 02/M01 A3024 RMK A01 T00201005  RH  083%=      5-min Rain = 0
KDC1 141533Z 05002KT 02/M01 A3024 RMK A01 T00211005  RH  083%=      5-min Rain = 0
KDC1 141534Z 06002KT 02/M00 A3024 RMK A01 T00221003  RH  083%=      5-min Rain = 0
KDC1 141535Z 06001KT 02/M00 A3024 RMK A01 T00231004  RH  082%=      5-min Rain = 0
KDC1 141536Z 07001KT 02/M01 A3024 RMK A01 T00241005  RH  081%=      5-min Rain = 0
KDC1 141537Z 06001KT 02/M01 A3024 RMK A01 T00241007  RH  080%=      5-min Rain = 0
KDC1 141538Z 05001KT 03/M01 A3024 RMK A01 T00261005  RH  080%=      5-min Rain = 0
KDC1 141539Z 08000KT 03/M00 A3024 RMK A01 T00271004  RH  080%=      5-min Rain = 0
KDC1 141540Z 00000KT 03/M01 A3024 RMK A01 T00281005  RH  079%=      5-min Rain = 0
KDC1 141541Z 00000KT 03/M00 A3024 RMK A01 T00301002  RH  079%=      5-min Rain = 0
KDC1 141542Z 01000KT 03/00 A3025 RMK A01 T00340001  RH  079%=      5-min Rain = 0
KDC1 141543Z 04000KT 03/M00 A3025 RMK A01 T00341001  RH  078%=      5-min Rain = 0
KDC1 141544Z 00000KT 03/M00 A3025 RMK A01 T00341002  RH  077%=      5-min Rain = 0
KDC1 141545Z 05000KT 04/M00 A3025 RMK A01 T00351001  RH  077%=      5-min Rain = 0
KDC1 141546Z 06000KT 04/00 A3025 RMK A01 T00370001  RH  077%=      5-min Rain = 0
KDC1 141547Z 00000KT 04/00 A3025 RMK A01 T00410003  RH  077%=      5-min Rain = 0
KDC1 141548Z 00000KT 04/00 A3025 RMK A01 T00420002  RH  075%=      5-min Rain = 0
KDC1 141549Z 01000KT 04/00 A3025 RMK A01 T00430002  RH  075%=      5-min Rain = 0
KDC1 141550Z 02000KT 04/00 A3025 RMK A01 T00430001  RH  074%=      5-min Rain = 0
KDC1 141551Z 02000KT 04/00 A3025 RMK A01 T00430001  RH  074%=      5-min Rain = 0
KDC1 141552Z 02000KT 04/00 A3025 RMK A01 T00440002  RH  074%=      5-min Rain = 0
KDC1 141553Z 00001KT 05/00 A3025 RMK A01 T00460000  RH  072%=      5-min Rain = 0
KDC1 141554Z 35000KT 05/00 A3025 RMK A01 T004500-0  RH  072%=      5-min Rain = 0
KDC1 141555Z 34000KT 04/M00 A3025 RMK A01 T00441001  RH  073%=      5-min Rain = 0
KDC1 141556Z 00000KT 04/00 A3025 RMK A01 T00440001  RH  073%=      5-min Rain = 0
KDC1 141557Z 00002KT 05/00 A3025 RMK A01 T00450000  RH  073%=      5-min Rain = 0
KDC1 141558Z 01002KT 04/M00 A3025 RMK A01 T00441004  RH  071%=      5-min Rain = 0
KDC1 141559Z 01002KT 04/M00 A3025 RMK A01 T00431003  RH  072%=      5-min Rain = 0
KDC1 141600Z 36001KT 04/M00 A3025 RMK A01 T00431001  RH  073%=      5-min Rain = 0
KDC1 141601Z 35001KT 04/00 A3025 RMK A01 T004300-0  RH  074%=      5-min Rain = 0
KDC1 141602Z 36002KT 04/00 A3025 RMK A01 T00440001  RH  074%=      5-min Rain = 0
KDC1 141603Z 00001KT 05/00 A3025 RMK A01 T00450004  RH  074%=      5-min Rain = 0
KDC1 141604Z 35002KT 05/00 A3025 RMK A01 T00460003  RH  074%=      5-min Rain = 0
KDC1 141605Z 00001KT 05/00 A3025 RMK A01 T00470004  RH  074%=      5-min Rain = 0
KDC1 141606Z 02002KT 05/01 A3025 RMK A01 T00480007  RH  075%=      5-min Rain = 0
KDC1 141607Z 03002KT 05/01 A3025 RMK A01 T00490006  RH  074%=      5-min Rain = 0
KDC1 141608Z 04002KT 05/00 A3025 RMK A01 T00500004  RH  072%=      5-min Rain = 0
KDC1 141609Z 03003KT 05/00 A3025 RMK A01 T00500004  RH  072%=      5-min Rain = 0
KDC1 141610Z 01002KT 05/00 A3025 RMK A01 T00500004  RH  072%=      5-min Rain = 0
KDC1 141611Z 00002KT 05/01 A3025 RMK A01 T00510005  RH  072%=      5-min Rain = 0
KDC1 141612Z 00002KT 05/01 A3025 RMK A01 T00510005  RH  072%=      5-min Rain = 0
KDC1 141613Z 00003KT 05/01 A3024 RMK A01 T00520005  RH  072%=      5-min Rain = 0
KDC1 141614Z 02003KT 05/01 A3024 RMK A01 T00530006  RH  072%=      5-min Rain = 0
KDC1 141615Z 03003KT 05/01 A3024 RMK A01 T00540006  RH  071%=      5-min Rain = 0
KDC1 141616Z 03003KT 06/01 A3024 RMK A01 T00550006  RH  071%=      5-min Rain = 0
KDC1 141617Z 03002KT 06/01 A3024 RMK A01 T00560007  RH  071%=      5-min Rain = 0
KDC1 141618Z 06002KT 06/01 A3024 RMK A01 T00570010  RH  072%=      5-min Rain = 0
KDC1 141619Z 05003KT 06/01 A3024 RMK A01 T00590010  RH  071%=      5-min Rain = 0
KDC1 141620Z 01003KT 06/01 A3024 RMK A01 T00590010  RH  070%=      5-min Rain = 0
KDC1 141621Z 01003KT 06/01 A3024 RMK A01 T00600008  RH  070%=      5-min Rain = 0
KDC1 141622Z 03002KT 06/01 A3024 RMK A01 T00590008  RH  070%=      5-min Rain = 0
KDC1 141623Z 04003KT 06/01 A3024 RMK A01 T00590009  RH  070%=      5-min Rain = 0
KDC1 141624Z 04003KT 06/01 A3024 RMK A01 T00590007  RH  069%=      5-min Rain = 0
KDC1 141625Z 05002KT 06/01 A3024 RMK A01 T00590006  RH  069%=      5-min Rain = 0
KDC1 141626Z 04003KT 06/01 A3024 RMK A01 T00600008  RH  069%=      5-min Rain = 0
KDC1 141627Z 02003KT 06/01 A3024 RMK A01 T00610005  RH  067%=      5-min Rain = 0
KDC1 141628Z 04003KT 06/01 A3024 RMK A01 T00610006  RH  068%=      5-min Rain = 0
KDC1 141629Z 06002KT 06/01 A3024 RMK A01 T00620007  RH  068%=      5-min Rain = 0
KDC1 141630Z 05002KT 06/01 A3024 RMK A01 T00620006  RH  067%=      5-min Rain = 0
KDC1 141631Z 07003KT 06/01 A3024 RMK A01 T00630005  RH  066%=      5-min Rain = 0
KDC1 141632Z 07002KT 06/01 A3024 RMK A01 T00640005  RH  066%=      5-min Rain = 0
KDC1 141633Z 05002KT 07/01 A3024 RMK A01 T00650006  RH  066%=      5-min Rain = 0
KDC1 141634Z 06002KT 07/01 A3024 RMK A01 T00660005  RH  065%=      5-min Rain = 0
KDC1 141635Z 06001KT 07/00 A3024 RMK A01 T00660003  RH  064%=      5-min Rain = 0
KDC1 141636Z 07003KT 07/00 A3024 RMK A01 T00670003  RH  064%=      5-min Rain = 0
KDC1 141637Z 10002KT 07/00 A3024 RMK A01 T00670003  RH  063%=      5-min Rain = 0
KDC1 141638Z 09003KT 07/00 A3024 RMK A01 T00670002  RH  063%=      5-min Rain = 0
KDC1 141639Z 06003KT 07/00 A3024 RMK A01 T00680003  RH  063%=      5-min Rain = 0
KDC1 141640Z 09003KT 07/01 A3024 RMK A01 T00690005  RH  064%=      5-min Rain = 0
KDC1 141641Z 10004KT 07/01 A3024 RMK A01 T00700005  RH  063%=      5-min Rain = 0
KDC1 141642Z 11004KT 07/00 A3024 RMK A01 T00710002  RH  061%=      5-min Rain = 0
KDC1 141643Z 10004KT 07/M00 A3024 RMK A01 T00701001  RH  061%=      5-min Rain = 0
KDC1 141644Z 09003KT 07/00 A3024 RMK A01 T00690002  RH  062%=      5-min Rain = 0
KDC1 141645Z 09005KT 07/00 A3024 RMK A01 T00700002  RH  062%=      5-min Rain = 0
KDC1 141646Z 09004KT 07/00 A3024 RMK A01 T00690001  RH  062%=      5-min Rain = 0
KDC1 141647Z 07003KT 07/00 A3024 RMK A01 T006800-0  RH  062%=      5-min Rain = 0
KDC1 141648Z 07003KT 07/00 A3024 RMK A01 T00680000  RH  062%=      5-min Rain = 0
KDC1 141649Z 08003KT 07/00 A3024 RMK A01 T00690003  RH  063%=      5-min Rain = 0
KDC1 141650Z 12003KT 07/00 A3024 RMK A01 T00710003  RH  062%=      5-min Rain = 0
KDC1 141651Z 10003KT 07/00 A3024 RMK A01 T00710000  RH  061%=      5-min Rain = 0
KDC1 141652Z 13003KT 07/00 A3024 RMK A01 T00710001  RH  061%=      5-min Rain = 0
KDC1 141653Z 09002KT 07/M00 A3024 RMK A01 T00721001  RH  060%=      5-min Rain = 0
KDC1 141654Z 09000KT 07/M00 A3024 RMK A01 T00731001  RH  060%=      5-min Rain = 0
KDC1 141655Z 07001KT 08/00 A3024 RMK A01 T00750001  RH  059%=      5-min Rain = 0
KDC1 141656Z 09002KT 08/01 A3024 RMK A01 T00780005  RH  060%=      5-min Rain = 0
KDC1 141657Z 13003KT 08/00 A3024 RMK A01 T00790002  RH  058%=      5-min Rain = 0
KDC1 141658Z 11002KT 08/00 A3024 RMK A01 T00790000  RH  058%=      5-min Rain = 0
KDC1 141659Z 08002KT 08/00 A3024 RMK A01 T007900-0  RH  057%=      5-min Rain = 0
KDC1 141700Z 13002KT 08/M00 A3024 RMK A01 T00771002  RH  057%=      5-min Rain = 0
KDC1 141701Z 19001KT 08/M00 A3024 RMK A01 T00781001  RH  058%=      5-min Rain = 0
KDC1 141702Z 13002KT 08/M00 A3024 RMK A01 T00791001  RH  057%=      5-min Rain = 0
KDC1 141703Z 13005KT 08/00 A3024 RMK A01 T00800000  RH  057%=      5-min Rain = 0
KDC1 141704Z 13005KT 08/00 A3024 RMK A01 T00810000  RH  057%=      5-min Rain = 0
KDC1 141705Z 14005KT 08/M00 A3024 RMK A01 T00791002  RH  056%=      5-min Rain = 0
KDC1 141706Z 15004KT 08/00 A3024 RMK A01 T00790001  RH  058%=      5-min Rain = 0
KDC1 141707Z 17002KT 08/00 A3024 RMK A01 T00790001  RH  058%=      5-min Rain = 0
KDC1 141708Z 16004KT 08/00 A3024 RMK A01 T00800001  RH  058%=      5-min Rain = 0
KDC1 141709Z 15004KT 08/00 A3024 RMK A01 T00800000  RH  057%=      5-min Rain = 0
KDC1 141710Z 16003KT 08/00 A3024 RMK A01 T00800002  RH  058%=      5-min Rain = 0
KDC1 141711Z 14004KT 08/00 A3024 RMK A01 T00800001  RH  057%=      5-min Rain = 0
KDC1 141712Z 15003KT 08/00 A3024 RMK A01 T00800000  RH  057%=      5-min Rain = 0
KDC1 141713Z 14002KT 08/M00 A3024 RMK A01 T00791002  RH  056%=      5-min Rain = 0
KDC1 141714Z 13001KT 08/M00 A3024 RMK A01 T00791002  RH  057%=      5-min Rain = 0
KDC1 141715Z 15003KT 08/00 A3024 RMK A01 T00810001  RH  057%=      5-min Rain = 0
KDC1 141716Z 15003KT 08/00 A3024 RMK A01 T00830004  RH  057%=      5-min Rain = 0
KDC1 141717Z 15002KT 08/00 A3024 RMK A01 T00830003  RH  057%=      5-min Rain = 0
KDC1 141718Z 16003KT 08/00 A3024 RMK A01 T00830004  RH  057%=      5-min Rain = 0
KDC1 141719Z 16002KT 08/00 A3024 RMK A01 T00830002  RH  057%=      5-min Rain = 0
KDC1 141720Z 16001KT 08/00 A3024 RMK A01 T00820002  RH  057%=      5-min Rain = 0
KDC1 141721Z 12002KT 08/01 A3024 RMK A01 T00840007  RH  058%=      5-min Rain = 0
KDC1 141722Z 10002KT 09/01 A3024 RMK A01 T00860006  RH  057%=      5-min Rain = 0
KDC1 141723Z 12002KT 09/01 A3024 RMK A01 T00860005  RH  057%=      5-min Rain = 0
KDC1 141724Z 14003KT 09/01 A3024 RMK A01 T00870009  RH  058%=      5-min Rain = 0
KDC1 141725Z 13004KT 09/01 A3024 RMK A01 T00880007  RH  057%=      5-min Rain = 0
KDC1 141726Z 13004KT 09/01 A3024 RMK A01 T00860006  RH  057%=      5-min Rain = 0
KDC1 141727Z 13002KT 09/01 A3024 RMK A01 T00850005  RH  057%=      5-min Rain = 0
KDC1 141728Z 14002KT 09/00 A3024 RMK A01 T00850004  RH  057%=      5-min Rain = 0
KDC1 141729Z 15001KT 09/01 A3024 RMK A01 T00860005  RH  057%=      5-min Rain = 0
KDC1 141730Z 13002KT 09/01 A3024 RMK A01 T00860007  RH  057%=      5-min Rain = 0
KDC1 141731Z 13002KT 09/01 A3024 RMK A01 T00880005  RH  056%=      5-min Rain = 0
KDC1 141732Z 13002KT 09/01 A3024 RMK A01 T00880005  RH  056%=      5-min Rain = 0
KDC1 141733Z 11002KT 09/01 A3024 RMK A01 T00890006  RH  056%=      5-min Rain = 0
KDC1 141734Z 11000KT 09/01 A3024 RMK A01 T00890006  RH  056%=      5-min Rain = 0
KDC1 141735Z 09001KT 09/01 A3023 RMK A01 T00890006  RH  056%=      5-min Rain = 0
KDC1 141736Z 10004KT 09/01 A3023 RMK A01 T00900009  RH  057%=      5-min Rain = 0
KDC1 141737Z 11003KT 09/01 A3023 RMK A01 T00900006  RH  056%=      5-min Rain = 0
KDC1 141738Z 11003KT 09/01 A3023 RMK A01 T00890005  RH  055%=      5-min Rain = 0
KDC1 141739Z 13001KT 09/01 A3023 RMK A01 T00890005  RH  056%=      5-min Rain = 0
KDC1 141740Z 14002KT 09/01 A3023 RMK A01 T00880005  RH  056%=      5-min Rain = 0
KDC1 141741Z 14002KT 09/01 A3023 RMK A01 T00890006  RH  056%=      5-min Rain = 0
KDC1 141742Z 11002KT 09/01 A3023 RMK A01 T00900008  RH  056%=      5-min Rain = 0
KDC1 141743Z 08002KT 09/01 A3023 RMK A01 T00920011  RH  057%=      5-min Rain = 0
KDC1 141744Z 03002KT 09/01 A3023 RMK A01 T00940014  RH  057%=      5-min Rain = 0
KDC1 141745Z 02002KT 09/01 A3023 RMK A01 T00940009  RH  056%=      5-min Rain = 0
KDC1 141746Z 04003KT 09/01 A3023 RMK A01 T00910008  RH  056%=      5-min Rain = 0
KDC1 141747Z 07002KT 09/01 A3023 RMK A01 T00900009  RH  057%=      5-min Rain = 0
KDC1 141748Z 07002KT 09/01 A3023 RMK A01 T00900012  RH  058%=      5-min Rain = 0
KDC1 141749Z 09002KT 09/01 A3023 RMK A01 T00910011  RH  057%=      5-min Rain = 0
KDC1 141750Z 09002KT 09/01 A3023 RMK A01 T00920009  RH  056%=      5-min Rain = 0
KDC1 141751Z 08002KT 09/01 A3023 RMK A01 T00930010  RH  056%=      5-min Rain = 0
KDC1 141752Z 11002KT 09/01 A3022 RMK A01 T00940010  RH  056%=      5-min Rain = 0
KDC1 141753Z 13003KT 10/01 A3022 RMK A01 T00970012  RH  055%=      5-min Rain = 0
KDC1 141754Z 14003KT 10/01 A3022 RMK A01 T00990008  RH  053%=      5-min Rain = 0
KDC1 141755Z 14004KT 10/01 A3022 RMK A01 T00980007  RH  053%=      5-min Rain = 0
KDC1 141756Z 13004KT 10/01 A3022 RMK A01 T00990008  RH  053%=      5-min Rain = 0
KDC1 141757Z 11001KT 10/01 A3022 RMK A01 T00990008  RH  053%=      5-min Rain = 0
KDC1 141758Z 09002KT 10/01 A3022 RMK A01 T00990007  RH  053%=      5-min Rain = 0
KDC1 141759Z 12003KT 10/01 A3022 RMK A01 T00990009  RH  053%=      5-min Rain = 0
KDC1 141800Z 11002KT 10/01 A3022 RMK A01 T01000010  RH  054%=      5-min Rain = 0
KDC1 141801Z 06001KT 10/01 A3022 RMK A01 T01010011  RH  054%=      5-min Rain = 0
KDC1 141802Z 09003KT 10/01 A3022 RMK A01 T01010010  RH  053%=      5-min Rain = 0
KDC1 141803Z 12006KT 10/01 A3022 RMK A01 T01000007  RH  052%=      5-min Rain = 0
KDC1 141804Z 13003KT 10/00 A3022 RMK A01 T01000003  RH  051%=      5-min Rain = 0
KDC1 141805Z 12001KT 10/00 A3022 RMK A01 T01000001  RH  050%=      5-min Rain = 0
KDC1 141806Z 09003KT 10/00 A3022 RMK A01 T00990003  RH  051%=      5-min Rain = 0
KDC1 141807Z 08004KT 10/01 A3022 RMK A01 T00980005  RH  052%=      5-min Rain = 0
KDC1 141808Z 07002KT 10/00 A3022 RMK A01 T00960002  RH  052%=      5-min Rain = 0
KDC1 141809Z 09002KT 10/01 A3022 RMK A01 T00950005  RH  053%=      5-min Rain = 0
KDC1 141810Z 11001KT 10/01 A3022 RMK A01 T00970008  RH  054%=      5-min Rain = 0
KDC1 141811Z 13005KT 10/01 A3022 RMK A01 T01000010  RH  053%=      5-min Rain = 0
KDC1 141812Z 11004KT 10/01 A3022 RMK A01 T01020009  RH  052%=      5-min Rain = 0
KDC1 141813Z 12004KT 10/01 A3022 RMK A01 T01030005  RH  051%=      5-min Rain = 0
KDC1 141814Z 12002KT 10/01 A3021 RMK A01 T01020005  RH  051%=      5-min Rain = 0
KDC1 141815Z 12004KT 10/01 A3021 RMK A01 T01020007  RH  052%=      5-min Rain = 0
KDC1 141816Z 12005KT 11/01 A3021 RMK A01 T01050010  RH  052%=      5-min Rain = 0
KDC1 141817Z 14005KT 11/01 A3021 RMK A01 T01060006  RH  050%=      5-min Rain = 0
KDC1 141818Z 13003KT 11/01 A3021 RMK A01 T01070006  RH  050%=      5-min Rain = 0
KDC1 141819Z 13004KT 11/01 A3021 RMK A01 T01070007  RH  050%=      5-min Rain = 0
KDC1 141820Z 12003KT 11/01 A3021 RMK A01 T01080009  RH  050%=      5-min Rain = 0
KDC1 141821Z 13006KT 11/01 A3021 RMK A01 T01090010  RH  051%=      5-min Rain = 0
KDC1 141822Z 15007KT 11/01 A3021 RMK A01 T01090005  RH  049%=      5-min Rain = 0
KDC1 141823Z 15006KT 11/00 A3021 RMK A01 T01090001  RH  047%=      5-min Rain = 0
KDC1 141824Z 14005KT 11/00 A3021 RMK A01 T01080001  RH  047%=      5-min Rain = 0
KDC1 141825Z 12007KT 11/01 A3021 RMK A01 T01090006  RH  049%=      5-min Rain = 0
KDC1 141826Z 14007KT 11/01 A302 RMK A01 T01100006  RH  048%=      5-min Rain = 0
KDC1 141827Z 14007KT 11/01 A302 RMK A01 T01120007  RH  049%=      5-min Rain = 0
KDC1 141828Z 14007KT 11/01 A302 RMK A01 T01120007  RH  048%=      5-min Rain = 0
KDC1 141829Z 14007KT 11/01 A302 RMK A01 T01120006  RH  048%=      5-min Rain = 0
KDC1 141830Z 14006KT 11/00 A302 RMK A01 T01120004  RH  047%=      5-min Rain = 0
KDC1 141831Z 15007KT 11/01 A302 RMK A01 T01100006  RH  049%=      5-min Rain = 0
KDC1 141832Z 15007KT 11/01 A302 RMK A01 T01100005  RH  048%=      5-min Rain = 0
KDC1 141833Z 13006KT 11/01 A302 RMK A01 T01100005  RH  048%=      5-min Rain = 0
KDC1 141834Z 14007KT 11/01 A302 RMK A01 T01090006  RH  049%=      5-min Rain = 0
KDC1 141835Z 14007KT 11/01 A302 RMK A01 T01090006  RH  049%=      5-min Rain = 0
KDC1 141836Z 14006KT 11/01 A302 RMK A01 T01090005  RH  048%=      5-min Rain = 0
KDC1 141837Z 14005KT 11/01 A302 RMK A01 T01090007  RH  049%=      5-min Rain = 0
KDC1 141838Z 12006KT 11/01 A302 RMK A01 T01110009  RH  049%=      5-min Rain = 0
KDC1 141839Z 11005KT 11/01 A302 RMK A01 T01130008  RH  048%=      5-min Rain = 0
KDC1 141840Z 11004KT 11/01 A302 RMK A01 T01110006  RH  048%=      5-min Rain = 0
KDC1 141841Z 12002KT 11/01 A302 RMK A01 T01100005  RH  048%=      5-min Rain = 0
KDC1 141842Z 13003KT 11/01 A302 RMK A01 T01110008  RH  049%=      5-min Rain = 0
KDC1 141843Z 13005KT 12/01 A302 RMK A01 T01160011  RH  049%=      5-min Rain = 0
KDC1 141844Z 13006KT 12/01 A302 RMK A01 T01180009  RH  047%=      5-min Rain = 0
KDC1 141845Z 13004KT 12/01 A302 RMK A01 T01180006  RH  046%=      5-min Rain = 0
KDC1 141846Z 12004KT 12/01 A302 RMK A01 T01170005  RH  046%=      5-min Rain = 0
KDC1 141847Z 12003KT 12/01 A302 RMK A01 T01160007  RH  047%=      5-min Rain = 0
KDC1 141848Z 11004KT 12/01 A3019 RMK A01 T01160008  RH  047%=      5-min Rain = 0
KDC1 141849Z 10004KT 12/01 A3019 RMK A01 T01170008  RH  047%=      5-min Rain = 0
KDC1 141850Z 14005KT 12/01 A3019 RMK A01 T01180012  RH  048%=      5-min Rain = 0
KDC1 141851Z 14005KT 12/01 A3019 RMK A01 T01190009  RH  047%=      5-min Rain = 0
KDC1 141852Z 11007KT 12/01 A3019 RMK A01 T01170009  RH  047%=      5-min Rain = 0
KDC1 141853Z 10006KT 12/01 A3019 RMK A01 T01170007  RH  047%=      5-min Rain = 0
KDC1 141854Z 10005KT 12/01 A3019 RMK A01 T01150007  RH  047%=      5-min Rain = 0
KDC1 141855Z 11006KT 11/01 A3019 RMK A01 T01140008  RH  048%=      5-min Rain = 0
KDC1 141856Z 13007KT 12/01 A3019 RMK A01 T01160009  RH  048%=      5-min Rain = 0
KDC1 141857Z 14006KT 12/01 A3019 RMK A01 T01170006  RH  046%=      5-min Rain = 0
KDC1 141858Z 15006KT 12/01 A3019 RMK A01 T01190006  RH  046%=      5-min Rain = 0
KDC1 141859Z 14007KT 12/01 A3019 RMK A01 T01210007  RH  046%=      5-min Rain = 0
KDC1 141900Z 15006KT 12/01 A3019 RMK A01 T01220006  RH  045%=      5-min Rain = 0
KDC1 141901Z 15006KT 12/00 A3019 RMK A01 T01220002  RH  044%=      5-min Rain = 0
KDC1 141902Z 14007KT 12/00 A3019 RMK A01 T01210003  RH  044%=      5-min Rain = 0
KDC1 141903Z 14006KT 12/01 A3019 RMK A01 T01210006  RH  045%=      5-min Rain = 0
KDC1 141904Z 14005KT 12/00 A3019 RMK A01 T01210004  RH  045%=      5-min Rain = 0
KDC1 141905Z 13007KT 12/00 A3019 RMK A01 T01210004  RH  045%=      5-min Rain = 0
KDC1 141906Z 13007KT 12/01 A3018 RMK A01 T01220007  RH  045%=      5-min Rain = 0
KDC1 141907Z 13007KT 12/01 A3018 RMK A01 T01230008  RH  045%=      5-min Rain = 0
KDC1 141908Z 12005KT 12/01 A3018 RMK A01 T01220008  RH  045%=      5-min Rain = 0
KDC1 141909Z 11003KT 12/01 A3018 RMK A01 T01200007  RH  046%=      5-min Rain = 0
KDC1 141910Z 09003KT 12/01 A3018 RMK A01 T01200009  RH  046%=      5-min Rain = 0
KDC1 141911Z 14008KT 12/01 A3018 RMK A01 T01220013  RH  047%=      5-min Rain = 0
KDC1 141912Z 14007KT 13/01 A3018 RMK A01 T01250013  RH  046%=      5-min Rain = 0
KDC1 141913Z 14006KT 13/01 A3018 RMK A01 T01260011  RH  046%=      5-min Rain = 0
KDC1 141914Z 11004KT 13/01 A3018 RMK A01 T01250014  RH  047%=      5-min Rain = 0
KDC1 141915Z 15005KT 13/01 A3018 RMK A01 T01260014  RH  046%=      5-min Rain = 0
KDC1 141916Z 14007KT 13/01 A3018 RMK A01 T01260011  RH  045%=      5-min Rain = 0
KDC1 141917Z 16006KT 13/01 A3018 RMK A01 T01250009  RH  045%=      5-min Rain = 0
KDC1 141918Z 14006KT 13/01 A3017 RMK A01 T01250013  RH  046%=      5-min Rain = 0
KDC1 141919Z 13007KT 13/01 A3017 RMK A01 T01260008  RH  044%=      5-min Rain = 0
KDC1 141920Z 13007KT 12/01 A3017 RMK A01 T01230008  RH  045%=      5-min Rain = 0
KDC1 141921Z 14006KT 12/01 A3017 RMK A01 T01240010  RH  046%=      5-min Rain = 0
KDC1 141922Z 13007KT 12/01 A3017 RMK A01 T01240009  RH  045%=      5-min Rain = 0
KDC1 141923Z 12007KT 12/01 A3017 RMK A01 T01240008  RH  045%=      5-min Rain = 0
KDC1 141924Z 12004KT 12/01 A3017 RMK A01 T01240007  RH  045%=      5-min Rain = 0
KDC1 141925Z 10005KT 12/01 A3017 RMK A01 T01240006  RH  044%=      5-min Rain = 0
KDC1 141926Z 16006KT 12/01 A3017 RMK A01 T01240006  RH  044%=      5-min Rain = 0
KDC1 141927Z 14005KT 13/01 A3017 RMK A01 T01250006  RH  044%=      5-min Rain = 0
KDC1 141928Z 15003KT 13/00 A3017 RMK A01 T01260003  RH  043%=      5-min Rain = 0
KDC1 141929Z 14005KT 13/01 A3016 RMK A01 T01260010  RH  045%=      5-min Rain = 0
KDC1 141930Z 12006KT 13/01 A3016 RMK A01 T01270011  RH  045%=      5-min Rain = 0
KDC1 141931Z 13005KT 13/01 A3016 RMK A01 T01260010  RH  045%=      5-min Rain = 0
KDC1 141932Z 12005KT 13/01 A3016 RMK A01 T01270011  RH  045%=      5-min Rain = 0
KDC1 141933Z 10005KT 13/01 A3016 RMK A01 T01280005  RH  043%=      5-min Rain = 0
KDC1 141934Z 10005KT 13/01 A3016 RMK A01 T01270008  RH  044%=      5-min Rain = 0
KDC1 141935Z 10004KT 13/01 A3016 RMK A01 T01270011  RH  045%=      5-min Rain = 0
KDC1 141936Z 11004KT 13/01 A3016 RMK A01 T01290012  RH  045%=      5-min Rain = 0
KDC1 141937Z 10004KT 13/01 A3016 RMK A01 T01290013  RH  045%=      5-min Rain = 0
KDC1 141938Z 12006KT 13/01 A3016 RMK A01 T01280011  RH  045%=      5-min Rain = 0
KDC1 141939Z 13006KT 13/01 A3016 RMK A01 T01280011  RH  045%=      5-min Rain = 0
KDC1 141940Z 14005KT 13/01 A3016 RMK A01 T01280010  RH  044%=      5-min Rain = 0
KDC1 141941Z 15006KT 13/01 A3016 RMK A01 T01280009  RH  044%=      5-min Rain = 0
KDC1 141942Z 15006KT 13/01 A3015 RMK A01 T01290011  RH  045%=      5-min Rain = 0
KDC1 141943Z 13005KT 13/01 A3016 RMK A01 T01290011  RH  045%=      5-min Rain = 0
KDC1 141944Z 13005KT 13/01 A3015 RMK A01 T01290011  RH  045%=      5-min Rain = 0
KDC1 141945Z 14004KT 13/01 A3015 RMK A01 T01280010  RH  045%=      5-min Rain = 0
KDC1 141946Z 13002KT 13/01 A3015 RMK A01 T01290014  RH  045%=      5-min Rain = 0
KDC1 141947Z 16002KT 13/01 A3015 RMK A01 T01310010  RH  044%=      5-min Rain = 0
KDC1 141948Z 13004KT 13/01 A3015 RMK A01 T01320012  RH  044%=      5-min Rain = 0
KDC1 141949Z 11004KT 13/02 A3015 RMK A01 T01340015  RH  044%=      5-min Rain = 0
KDC1 141950Z 13003KT 13/02 A3015 RMK A01 T01340015  RH  044%=      5-min Rain = 0
KDC1 141951Z 18004KT 14/02 A3015 RMK A01 T01350015  RH  044%=      5-min Rain = 0
KDC1 141952Z 18003KT 14/01 A3015 RMK A01 T01350011  RH  043%=      5-min Rain = 0
KDC1 141953Z 18001KT 14/01 A3015 RMK A01 T01350011  RH  043%=      5-min Rain = 0
KDC1 141954Z 18001KT 14/02 A3015 RMK A01 T01360015  RH  043%=      5-min Rain = 0
KDC1 141955Z 17002KT 14/02 A3015 RMK A01 T01400017  RH  043%=      5-min Rain = 0
KDC1 141956Z 16004KT 14/02 A3015 RMK A01 T01410015  RH  042%=      5-min Rain = 0
KDC1 141957Z 16002KT 14/02 A3015 RMK A01 T01410016  RH  043%=      5-min Rain = 0
KDC1 141958Z 21002KT 14/02 A3015 RMK A01 T01420019  RH  043%=      5-min Rain = 0
KDC1 141959Z 22002KT 14/01 A3015 RMK A01 T01410013  RH  042%=      5-min Rain = 0
KDC1 142000Z 19002KT 14/01 A3014 RMK A01 T01390012  RH  042%=      5-min Rain = 0
KDC1 142001Z 19004KT 14/02 A3014 RMK A01 T01390016  RH  043%=      5-min Rain = 0
KDC1 142002Z 19005KT 14/02 A3014 RMK A01 T01400017  RH  043%=      5-min Rain = 0
KDC1 142003Z 20004KT 14/02 A3014 RMK A01 T01410017  RH  043%=      5-min Rain = 0
KDC1 142004Z 20003KT 14/02 A3014 RMK A01 T01390015  RH  043%=      5-min Rain = 0
KDC1 142005Z 21003KT 14/02 A3014 RMK A01 T01390018  RH  044%=      5-min Rain = 0
KDC1 142006Z 21001KT 14/02 A3014 RMK A01 T01400016  RH  043%=      5-min Rain = 0
KDC1 142007Z 18002KT 14/02 A3014 RMK A01 T01410018  RH  043%=      5-min Rain = 0
KDC1 142008Z 14005KT 14/02 A3014 RMK A01 T01420020  RH  044%=      5-min Rain = 0
KDC1 142009Z 11004KT 14/02 A3014 RMK A01 T01440021  RH  044%=      5-min Rain = 0
KDC1 142010Z 10005KT 14/02 A3014 RMK A01 T01420020  RH  043%=      5-min Rain = 0
KDC1 142011Z 12004KT 14/02 A3014 RMK A01 T01420020  RH  044%=      5-min Rain = 0
KDC1 142012Z 13002KT 14/02 A3014 RMK A01 T01420019  RH  043%=      5-min Rain = 0
KDC1 142013Z 13003KT 14/02 A3013 RMK A01 T01420021  RH  044%=      5-min Rain = 0
KDC1 142014Z 15003KT 14/02 A3013 RMK A01 T01420021  RH  044%=      5-min Rain = 0
KDC1 142015Z 20002KT 14/02 A3013 RMK A01 T01410019  RH  043%=      5-min Rain = 0
KDC1 142016Z 18003KT 14/02 A3013 RMK A01 T01410019  RH  044%=      5-min Rain = 0
KDC1 142017Z 15005KT 14/02 A3013 RMK A01 T01420021  RH  044%=      5-min Rain = 0
KDC1 142018Z 16003KT 14/02 A3013 RMK A01 T01430019  RH  043%=      5-min Rain = 0
KDC1 142019Z 15001KT 14/02 A3013 RMK A01 T01420020  RH  044%=      5-min Rain = 0
KDC1 142020Z 11002KT 14/02 A3013 RMK A01 T01440021  RH  043%=      5-min Rain = 0
KDC1 142021Z 13004KT 15/02 A3013 RMK A01 T01460022  RH  043%=      5-min Rain = 0
KDC1 142022Z 15005KT 15/02 A3013 RMK A01 T01460023  RH  043%=      5-min Rain = 0
KDC1 142023Z 15005KT 15/02 A3013 RMK A01 T01470024  RH  043%=      5-min Rain = 0
KDC1 142024Z 16005KT 15/02 A3013 RMK A01 T01480022  RH  043%=      5-min Rain = 0
KDC1 142025Z 18003KT 15/02 A3013 RMK A01 T01460022  RH  043%=      5-min Rain = 0
KDC1 142026Z 20004KT 15/02 A3013 RMK A01 T01470020  RH  042%=      5-min Rain = 0
KDC1 142027Z 18003KT 15/02 A3013 RMK A01 T01480017  RH  041%=      5-min Rain = 0
KDC1 142028Z 17005KT 15/02 A3013 RMK A01 T01490021  RH  042%=      5-min Rain = 0
KDC1 142029Z 16005KT 15/02 A3013 RMK A01 T01500018  RH  041%=      5-min Rain = 0
KDC1 142030Z 18004KT 15/02 A3013 RMK A01 T01480019  RH  042%=      5-min Rain = 0
KDC1 142031Z 20003KT 15/02 A3013 RMK A01 T01470017  RH  041%=      5-min Rain = 0
KDC1 142032Z 22003KT 15/02 A3013 RMK A01 T01450019  RH  042%=      5-min Rain = 0
KDC1 142033Z 20002KT 15/02 A3012 RMK A01 T01460023  RH  043%=      5-min Rain = 0
KDC1 142034Z 17004KT 15/02 A3012 RMK A01 T01490024  RH  043%=      5-min Rain = 0
KDC1 142035Z 18002KT 15/02 A3012 RMK A01 T01510018  RH  041%=      5-min Rain = 0
KDC1 142036Z 21002KT 15/02 A3012 RMK A01 T01490017  RH  041%=      5-min Rain = 0
KDC1 142037Z 26002KT 15/02 A3012 RMK A01 T01490019  RH  041%=      5-min Rain = 0
KDC1 142038Z 27003KT 15/02 A3012 RMK A01 T01490020  RH  042%=      5-min Rain = 0
KDC1 142039Z 27004KT 15/02 A3012 RMK A01 T01500021  RH  042%=      5-min Rain = 0
KDC1 142040Z 25002KT 15/02 A3012 RMK A01 T01490023  RH  042%=      5-min Rain = 0
KDC1 142041Z 19001KT 15/03 A3012 RMK A01 T01520027  RH  043%=      5-min Rain = 0
KDC1 142042Z 15003KT 16/02 A3012 RMK A01 T01550024  RH  041%=      5-min Rain = 0
KDC1 142043Z 13002KT 16/02 A3012 RMK A01 T01560020  RH  040%=      5-min Rain = 0
KDC1 142044Z 15006KT 16/02 A3012 RMK A01 T01560022  RH  040%=      5-min Rain = 0
KDC1 142045Z 16006KT 16/02 A3012 RMK A01 T01550021  RH  040%=      5-min Rain = 0
KDC1 142046Z 15007KT 15/02 A3012 RMK A01 T01540020  RH  040%=      5-min Rain = 0
KDC1 142047Z 15005KT 15/02 A3012 RMK A01 T01520018  RH  040%=      5-min Rain = 0
KDC1 142048Z 18004KT 15/02 A3012 RMK A01 T01520019  RH  041%=      5-min Rain = 0
KDC1 142049Z 20003KT 15/02 A3012 RMK A01 T01510017  RH  040%=      5-min Rain = 0
KDC1 142050Z 22002KT 15/02 A3012 RMK A01 T01510018  RH  041%=      5-min Rain = 0
KDC1 142051Z 22001KT 15/02 A3011 RMK A01 T01530020  RH  041%=      5-min Rain = 0
KDC1 142052Z 19002KT 15/02 A3011 RMK A01 T01540017  RH  040%=      5-min Rain = 0
KDC1 142053Z 16005KT 16/02 A3011 RMK A01 T01550020  RH  040%=      5-min Rain = 0
KDC1 142054Z 19004KT 16/02 A3011 RMK A01 T01560018  RH  039%=      5-min Rain = 0
KDC1 142055Z 21003KT 16/02 A3011 RMK A01 T01550017  RH  039%=      5-min Rain = 0
KDC1 142056Z 20002KT 16/02 A3011 RMK A01 T01550019  RH  040%=      5-min Rain = 0
KDC1 142057Z 17002KT 16/02 A3011 RMK A01 T01560017  RH  039%=      5-min Rain = 0
KDC1 142058Z 17004KT 16/02 A3011 RMK A01 T01570020  RH  040%=      5-min Rain = 0
KDC1 142059Z 16001KT 16/02 A3011 RMK A01 T01580017  RH  038%=      5-min Rain = 0
KDC1 142100Z 15005KT 16/02 A3011 RMK A01 T01580017  RH  038%=      5-min Rain = 0
KDC1 142101Z 16006KT 16/02 A3011 RMK A01 T01590018  RH  039%=      5-min Rain = 0
KDC1 142102Z 16005KT 16/02 A3011 RMK A01 T01590019  RH  039%=      5-min Rain = 0
KDC1 142103Z 16002KT 16/01 A3011 RMK A01 T01590014  RH  038%=      5-min Rain = 0
KDC1 142104Z 17005KT 16/02 A3011 RMK A01 T01590017  RH  038%=      5-min Rain = 0
KDC1 142105Z 18004KT 16/02 A301 RMK A01 T01600020  RH  039%=      5-min Rain = 0
KDC1 142106Z 20003KT 16/02 A301 RMK A01 T01600017  RH  038%=      5-min Rain = 0
KDC1 142107Z 19003KT 16/02 A301 RMK A01 T01600016  RH  038%=      5-min Rain = 0
KDC1 142108Z 16006KT 16/02 A301 RMK A01 T01600019  RH  039%=      5-min Rain = 0
KDC1 142109Z 18004KT 16/02 A301 RMK A01 T01590016  RH  038%=      5-min Rain = 0
KDC1 142110Z 17001KT 16/02 A301 RMK A01 T01590016  RH  038%=      5-min Rain = 0
KDC1 142111Z 00000KT 16/02 A301 RMK A01 T01600018  RH  038%=      5-min Rain = 0
KDC1 142112Z 20000KT 16/02 A301 RMK A01 T01620019  RH  038%=      5-min Rain = 0
KDC1 142113Z 16001KT 16/02 A301 RMK A01 T01630017  RH  037%=      5-min Rain = 0
KDC1 142114Z 17001KT 16/02 A301 RMK A01 T01640017  RH  037%=      5-min Rain = 0
KDC1 142115Z 17003KT 16/02 A301 RMK A01 T01640016  RH  037%=      5-min Rain = 0
KDC1 142116Z 17004KT 17/02 A301 RMK A01 T01650019  RH  037%=      5-min Rain = 0
KDC1 142117Z 16005KT 17/02 A301 RMK A01 T01650016  RH  037%=      5-min Rain = 0
KDC1 142118Z 19004KT 16/02 A301 RMK A01 T01640016  RH  037%=      5-min Rain = 0
KDC1 142119Z 20005KT 16/02 A301 RMK A01 T01640016  RH  037%=      5-min Rain = 0
KDC1 142120Z 17004KT 16/02 A301 RMK A01 T01630015  RH  037%=      5-min Rain = 0
KDC1 142121Z 16005KT 16/02 A301 RMK A01 T01620015  RH  037%=      5-min Rain = 0
KDC1 142122Z 16005KT 16/02 A301 RMK A01 T01630018  RH  037%=      5-min Rain = 0
KDC1 142123Z 18004KT 16/02 A301 RMK A01 T01630016  RH  037%=      5-min Rain = 0
KDC1 142124Z 20004KT 16/02 A301 RMK A01 T01630016  RH  037%=      5-min Rain = 0
KDC1 142125Z 21003KT 16/02 A3009 RMK A01 T01630015  RH  037%=      5-min Rain = 0
KDC1 142126Z 18004KT 16/01 A3009 RMK A01 T01630014  RH  036%=      5-min Rain = 0
KDC1 142127Z 17002KT 16/02 A3009 RMK A01 T01640018  RH  037%=      5-min Rain = 0
KDC1 142128Z 18002KT 17/02 A3009 RMK A01 T01660018  RH  037%=      5-min Rain = 0
KDC1 142129Z 15003KT 17/02 A3009 RMK A01 T01670017  RH  036%=      5-min Rain = 0
KDC1 142130Z 13004KT 17/02 A3009 RMK A01 T01670020  RH  037%=      5-min Rain = 0
KDC1 142131Z 14005KT 17/02 A3009 RMK A01 T01680020  RH  037%=      5-min Rain = 0
KDC1 142132Z 13005KT 17/02 A3009 RMK A01 T01660017  RH  037%=      5-min Rain = 0
KDC1 142133Z 11004KT 16/02 A3009 RMK A01 T01630015  RH  037%=      5-min Rain = 0
KDC1 142134Z 12004KT 16/02 A3009 RMK A01 T01620016  RH  037%=      5-min Rain = 0
KDC1 142135Z 16001KT 16/02 A3009 RMK A01 T01610016  RH  038%=      5-min Rain = 0
KDC1 142136Z 20001KT 16/02 A3009 RMK A01 T01610016  RH  038%=      5-min Rain = 0
KDC1 142137Z 22000KT 16/02 A3009 RMK A01 T01630017  RH  037%=      5-min Rain = 0
KDC1 142138Z 11003KT 17/02 A3009 RMK A01 T01650020  RH  038%=      5-min Rain = 0
KDC1 142139Z 12003KT 17/02 A3009 RMK A01 T01660019  RH  037%=      5-min Rain = 0
KDC1 142140Z 08002KT 17/02 A3009 RMK A01 T01650019  RH  037%=      5-min Rain = 0
KDC1 142141Z 08002KT 17/02 A3008 RMK A01 T01650020  RH  038%=      5-min Rain = 0
KDC1 142142Z 10004KT 16/02 A3008 RMK A01 T01640019  RH  038%=      5-min Rain = 0
KDC1 142143Z 10004KT 16/02 A3008 RMK A01 T01640020  RH  038%=      5-min Rain = 0
KDC1 142144Z 08003KT 16/02 A3008 RMK A01 T01640020  RH  038%=      5-min Rain = 0
KDC1 142145Z 12002KT 16/02 A3008 RMK A01 T01640019  RH  038%=      5-min Rain = 0
KDC1 142146Z 13005KT 16/02 A3008 RMK A01 T01640019  RH  038%=      5-min Rain = 0
KDC1 142147Z 12005KT 16/02 A3008 RMK A01 T01640019  RH  037%=      5-min Rain = 0
KDC1 142148Z 12005KT 16/02 A3008 RMK A01 T01640018  RH  037%=      5-min Rain = 0
KDC1 142149Z 13006KT 16/02 A3008 RMK A01 T01640018  RH  037%=      5-min Rain = 0
KDC1 142150Z 11005KT 16/02 A3008 RMK A01 T01640019  RH  038%=      5-min Rain = 0
KDC1 142151Z 10003KT 16/02 A3008 RMK A01 T01640016  RH  037%=      5-min Rain = 0
KDC1 142152Z 11003KT 16/02 A3008 RMK A01 T01630016  RH  037%=      5-min Rain = 0
KDC1 142153Z 10002KT 16/02 A3008 RMK A01 T01630017  RH  037%=      5-min Rain = 0
KDC1 142154Z 11003KT 16/02 A3008 RMK A01 T01630020  RH  038%=      5-min Rain = 0
KDC1 142155Z 11005KT 17/02 A3008 RMK A01 T01650019  RH  037%=      5-min Rain = 0
KDC1 142156Z 11005KT 17/02 A3008 RMK A01 T01650017  RH  037%=      5-min Rain = 0
KDC1 142157Z 09004KT 17/02 A3008 RMK A01 T01650017  RH  037%=      5-min Rain = 0
KDC1 142158Z 09004KT 17/02 A3008 RMK A01 T01650018  RH  037%=      5-min Rain = 0
KDC1 142159Z 14004KT 17/02 A3008 RMK A01 T01650019  RH  037%=      5-min Rain = 0
KDC1 142200Z 13004KT 17/02 A3008 RMK A01 T01650019  RH  037%=      5-min Rain = 0
KDC1 142201Z 14002KT 17/02 A3008 RMK A01 T01660017  RH  037%=      5-min Rain = 0
KDC1 142202Z 14000KT 17/02 A3007 RMK A01 T01660018  RH  037%=      5-min Rain = 0
KDC1 142203Z 07001KT 17/02 A3007 RMK A01 T01670019  RH  037%=      5-min Rain = 0
KDC1 142204Z 05003KT 17/02 A3007 RMK A01 T01690022  RH  037%=      5-min Rain = 0
KDC1 142205Z 07002KT 17/02 A3007 RMK A01 T01690018  RH  036%=      5-min Rain = 0
KDC1 142206Z 12003KT 17/02 A3007 RMK A01 T01670020  RH  037%=      5-min Rain = 0
KDC1 142207Z 13004KT 17/02 A3007 RMK A01 T01680021  RH  037%=      5-min Rain = 0
KDC1 142208Z 11003KT 17/02 A3007 RMK A01 T01690018  RH  036%=      5-min Rain = 0
KDC1 142209Z 09003KT 17/02 A3007 RMK A01 T01680017  RH  036%=      5-min Rain = 0
KDC1 142210Z 11003KT 17/02 A3007 RMK A01 T01680018  RH  037%=      5-min Rain = 0
KDC1 142211Z 06001KT 17/02 A3007 RMK A01 T01680017  RH  036%=      5-min Rain = 0
KDC1 142212Z 10002KT 17/02 A3007 RMK A01 T01690023  RH  037%=      5-min Rain = 0
KDC1 142213Z 10002KT 17/02 A3007 RMK A01 T01710023  RH  037%=      5-min Rain = 0
KDC1 142214Z 06003KT 17/02 A3007 RMK A01 T01720021  RH  036%=      5-min Rain = 0
KDC1 142215Z 03001KT 17/02 A3007 RMK A01 T01720021  RH  036%=      5-min Rain = 0
KDC1 142216Z 04002KT 17/02 A3007 RMK A01 T01710018  RH  036%=      5-min Rain = 0
KDC1 142217Z 03003KT 17/02 A3007 RMK A01 T01710019  RH  036%=      5-min Rain = 0
KDC1 142218Z 03004KT 17/02 A3007 RMK A01 T01690017  RH  036%=      5-min Rain = 0
KDC1 142219Z 06003KT 17/02 A3007 RMK A01 T01690019  RH  036%=      5-min Rain = 0
KDC1 142220Z 04002KT 17/02 A3007 RMK A01 T01690021  RH  037%=      5-min Rain = 0
KDC1 142221Z 04001KT 17/02 A3007 RMK A01 T01690019  RH  036%=      5-min Rain = 0
KDC1 142222Z 04002KT 17/02 A3007 RMK A01 T01700019  RH  036%=      5-min Rain = 0
KDC1 142223Z 06002KT 17/02 A3007 RMK A01 T01700019  RH  036%=      5-min Rain = 0
KDC1 142224Z 05002KT 17/02 A3007 RMK A01 T01700017  RH  036%=      5-min Rain = 0
KDC1 142225Z 04002KT 17/02 A3007 RMK A01 T01700016  RH  036%=      5-min Rain = 0
KDC1 142226Z 06003KT 17/02 A3007 RMK A01 T01690020  RH  037%=      5-min Rain = 0
KDC1 142227Z 04004KT 17/02 A3007 RMK A01 T01690018  RH  036%=      5-min Rain = 0
KDC1 142228Z 05005KT 17/02 A3007 RMK A01 T01680020  RH  037%=      5-min Rain = 0
KDC1 142229Z 04006KT 17/02 A3007 RMK A01 T01680017  RH  036%=      5-min Rain = 0
KDC1 142230Z 04003KT 17/02 A3007 RMK A01 T01680016  RH  036%=      5-min Rain = 0
KDC1 142231Z 03002KT 17/02 A3007 RMK A01 T01670015  RH  036%=      5-min Rain = 0
KDC1 142232Z 07002KT 17/02 A3007 RMK A01 T01670015  RH  036%=      5-min Rain = 0
KDC1 142233Z 10002KT 17/02 A3007 RMK A01 T01680016  RH  036%=      5-min Rain = 0
KDC1 142234Z 12001KT 17/02 A3007 RMK A01 T01680016  RH  036%=      5-min Rain = 0
KDC1 142235Z 12002KT 17/02 A3007 RMK A01 T01700020  RH  036%=      5-min Rain = 0
KDC1 142236Z 13002KT 17/02 A3007 RMK A01 T01720022  RH  037%=      5-min Rain = 0
KDC1 142237Z 15003KT 17/02 A3007 RMK A01 T01730019  RH  035%=      5-min Rain = 0
KDC1 142238Z 16001KT 17/02 A3007 RMK A01 T01740017  RH  035%=      5-min Rain = 0
KDC1 142239Z 20002KT 18/02 A3007 RMK A01 T01750017  RH  035%=      5-min Rain = 0
KDC1 142240Z 20003KT 18/02 A3007 RMK A01 T01750015  RH  034%=      5-min Rain = 0
KDC1 142241Z 17002KT 18/02 A3007 RMK A01 T01750016  RH  034%=      5-min Rain = 0
KDC1 142242Z 12002KT 18/01 A3007 RMK A01 T01750014  RH  034%=      5-min Rain = 0
KDC1 142243Z 13003KT 18/02 A3007 RMK A01 T01750016  RH  034%=      5-min Rain = 0
KDC1 142244Z 13003KT 17/02 A3007 RMK A01 T01740016  RH  034%=      5-min Rain = 0
KDC1 142245Z 09001KT 17/02 A3007 RMK A01 T01740015  RH  034%=      5-min Rain = 0
KDC1 142246Z 00000KT 17/01 A3007 RMK A01 T01730013  RH  034%=      5-min Rain = 0
KDC1 142247Z 11000KT 17/02 A3007 RMK A01 T01730015  RH  035%=      5-min Rain = 0
KDC1 142248Z 17003KT 18/02 A3007 RMK A01 T01750017  RH  035%=      5-min Rain = 0
KDC1 142249Z 17003KT 18/02 A3007 RMK A01 T01760015  RH  034%=      5-min Rain = 0
KDC1 142250Z 15005KT 18/02 A3007 RMK A01 T01760018  RH  034%=      5-min Rain = 0
KDC1 142251Z 16004KT 18/02 A3007 RMK A01 T01770018  RH  034%=      5-min Rain = 0
KDC1 142252Z 16003KT 18/02 A3007 RMK A01 T01780018  RH  034%=      5-min Rain = 0
KDC1 142253Z 14005KT 18/02 A3007 RMK A01 T01780021  RH  035%=      5-min Rain = 0
KDC1 142254Z 12004KT 18/02 A3007 RMK A01 T01780018  RH  034%=      5-min Rain = 0
KDC1 142255Z 11005KT 18/02 A3007 RMK A01 T01760016  RH  034%=      5-min Rain = 0
KDC1 142256Z 10004KT 17/02 A3007 RMK A01 T01740016  RH  035%=      5-min Rain = 0
KDC1 142257Z 11004KT 17/02 A3007 RMK A01 T01730016  RH  035%=      5-min Rain = 0
KDC1 142258Z 10004KT 17/01 A3006 RMK A01 T01720014  RH  034%=      5-min Rain = 0
KDC1 142259Z 07004KT 17/02 A3006 RMK A01 T01710015  RH  035%=      5-min Rain = 0
KDC1 142300Z 07004KT 17/02 A3006 RMK A01 T01710017  RH  035%=      5-min Rain = 0
KDC1 142301Z 07003KT 17/02 A3006 RMK A01 T01710015  RH  035%=      5-min Rain = 0
KDC1 142302Z 07003KT 17/02 A3006 RMK A01 T01710015  RH  035%=      5-min Rain = 0
KDC1 142303Z 08005KT 17/02 A3006 RMK A01 T01700017  RH  036%=      5-min Rain = 0
KDC1 142304Z 08004KT 17/02 A3006 RMK A01 T01700015  RH  035%=      5-min Rain = 0
KDC1 142305Z 07005KT 17/02 A3006 RMK A01 T01700016  RH  035%=      5-min Rain = 0
KDC1 142306Z 07004KT 17/02 A3006 RMK A01 T01700015  RH  035%=      5-min Rain = 0
KDC1 142307Z 07006KT 17/02 A3006 RMK A01 T01700017  RH  036%=      5-min Rain = 0
KDC1 142308Z 08004KT 17/02 A3006 RMK A01 T01700016  RH  036%=      5-min Rain = 0
KDC1 142309Z 08004KT 17/02 A3006 RMK A01 T01700019  RH  036%=      5-min Rain = 0
KDC1 142310Z 09005KT 17/02 A3006 RMK A01 T01720019  RH  036%=      5-min Rain = 0
KDC1 142311Z 07005KT 17/02 A3006 RMK A01 T01730016  RH  035%=      5-min Rain = 0
KDC1 142312Z 07004KT 17/02 A3006 RMK A01 T01720016  RH  035%=      5-min Rain = 0
KDC1 142313Z 07003KT 17/02 A3006 RMK A01 T01720017  RH  035%=      5-min Rain = 0
KDC1 142314Z 06003KT 17/02 A3006 RMK A01 T01730016  RH  035%=      5-min Rain = 0
KDC1 142315Z 07003KT 17/02 A3006 RMK A01 T01720015  RH  035%=      5-min Rain = 0
KDC1 142316Z 07003KT 17/02 A3006 RMK A01 T01720015  RH  035%=      5-min Rain = 0
KDC1 142317Z 08004KT 17/02 A3006 RMK A01 T01710016  RH  035%=      5-min Rain = 0
KDC1 142318Z 11004KT 17/02 A3006 RMK A01 T01720017  RH  035%=      5-min Rain = 0
KDC1 142319Z 10005KT 17/02 A3006 RMK A01 T01730018  RH  035%=      5-min Rain = 0
KDC1 142320Z 08004KT 17/02 A3006 RMK A01 T01730017  RH  035%=      5-min Rain = 0
KDC1 142321Z 08004KT 17/02 A3006 RMK A01 T01720017  RH  035%=      5-min Rain = 0
KDC1 142322Z 09003KT 17/02 A3006 RMK A01 T01720017  RH  035%=      5-min Rain = 0
KDC1 142323Z 10005KT 17/02 A3006 RMK A01 T01720017  RH  035%=      5-min Rain = 0
KDC1 142324Z 08004KT 17/02 A3006 RMK A01 T01720016  RH  035%=      5-min Rain = 0
KDC1 142325Z 09006KT 17/02 A3006 RMK A01 T01720018  RH  036%=      5-min Rain = 0
KDC1 142326Z 11006KT 17/02 A3006 RMK A01 T01720018  RH  035%=      5-min Rain = 0
KDC1 142327Z 09006KT 17/02 A3006 RMK A01 T01720016  RH  035%=      5-min Rain = 0
KDC1 142328Z 09004KT 17/01 A3006 RMK A01 T01720013  RH  034%=      5-min Rain = 0
KDC1 142329Z 08006KT 17/02 A3006 RMK A01 T01710016  RH  035%=      5-min Rain = 0
KDC1 142330Z 08007KT 17/01 A3006 RMK A01 T01710014  RH  035%=      5-min Rain = 0
KDC1 142331Z 09006KT 17/02 A3006 RMK A01 T01710016  RH  035%=      5-min Rain = 0
KDC1 142332Z 09005KT 17/02 A3006 RMK A01 T01710015  RH  035%=      5-min Rain = 0
KDC1 142333Z 08004KT 17/02 A3006 RMK A01 T01710016  RH  035%=      5-min Rain = 0
KDC1 142334Z 11005KT 17/02 A3006 RMK A01 T01720018  RH  035%=      5-min Rain = 0
KDC1 142335Z 11006KT 17/02 A3006 RMK A01 T01730016  RH  035%=      5-min Rain = 0
KDC1 142336Z 11006KT 17/02 A3006 RMK A01 T01730015  RH  035%=      5-min Rain = 0
KDC1 142337Z 11005KT 17/01 A3006 RMK A01 T01730013  RH  034%=      5-min Rain = 0
KDC1 142338Z 11006KT 17/02 A3006 RMK A01 T01720015  RH  035%=      5-min Rain = 0
KDC1 142339Z 11005KT 17/01 A3006 RMK A01 T01720014  RH  035%=      5-min Rain = 0
KDC1 142340Z 10006KT 17/01 A3006 RMK A01 T01720012  RH  034%=      5-min Rain = 0
KDC1 142341Z 12005KT 17/01 A3006 RMK A01 T01720014  RH  034%=      5-min Rain = 0
KDC1 142342Z 11005KT 17/02 A3006 RMK A01 T01720016  RH  035%=      5-min Rain = 0
KDC1 142343Z 10006KT 17/01 A3006 RMK A01 T01720013  RH  034%=      5-min Rain = 0
KDC1 142344Z 12005KT 17/01 A3006 RMK A01 T01720014  RH  034%=      5-min Rain = 0
KDC1 142345Z 12006KT 17/01 A3006 RMK A01 T01720014  RH  034%=      5-min Rain = 0
KDC1 142346Z 11005KT 17/02 A3006 RMK A01 T01720015  RH  035%=      5-min Rain = 0
KDC1 142347Z 10005KT 17/01 A3006 RMK A01 T01720014  RH  035%=      5-min Rain = 0
KDC1 142348Z 11005KT 17/01 A3006 RMK A01 T01720013  RH  034%=      5-min Rain = 0
KDC1 142349Z 10005KT 17/02 A3006 RMK A01 T01720015  RH  035%=      5-min Rain = 0
KDC1 142350Z 11004KT 17/01 A3006 RMK A01 T01710014  RH  035%=      5-min Rain = 0
KDC1 142351Z 10004KT 17/02 A3006 RMK A01 T01710015  RH  035%=      5-min Rain = 0
KDC1 142352Z 11005KT 17/02 A3006 RMK A01 T01700016  RH  035%=      5-min Rain = 0
KDC1 142353Z 12006KT 17/02 A3006 RMK A01 T01700018  RH  036%=      5-min Rain = 0
KDC1 142354Z 12006KT 17/02 A3006 RMK A01 T01690016  RH  036%=      5-min Rain = 0
KDC1 142355Z 12005KT 17/02 A3006 RMK A01 T01680017  RH  036%=      5-min Rain = 0
KDC1 142356Z 12006KT 17/02 A3006 RMK A01 T01680016  RH  036%=      5-min Rain = 0
KDC1 142357Z 12006KT 17/02 A3006 RMK A01 T01680015  RH  036%=      5-min Rain = 0
KDC1 142358Z 12006KT 17/02 A3006 RMK A01 T01670015  RH  036%=      5-min Rain = 0
KDC1 142359Z 12005KT 17/02 A3006 RMK A01 T01670016  RH  036%=      5-min Rain = 0
KDC1 150000Z 12005KT 17/02 A3006 RMK A01 T01660016  RH  036%=      5-min Rain = 0
KDC1 150001Z 12005KT 17/02 A3006 RMK A01 T01660017  RH  037%=      5-min Rain = 0
KDC1 150002Z 12005KT 17/02 A3006 RMK A01 T01660017  RH  037%=      5-min Rain = 0
KDC1 150003Z 12004KT 17/02 A3006 RMK A01 T01650018  RH  037%=      5-min Rain = 0
KDC1 150004Z 12004KT 17/02 A3006 RMK A01 T01650018  RH  037%=      5-min Rain = 0
KDC1 150005Z 12004KT 16/02 A3006 RMK A01 T01640018  RH  037%=      5-min Rain = 0
KDC1 150006Z 11004KT 16/02 A3006 RMK A01 T01640019  RH  038%=      5-min Rain = 0
KDC1 150007Z 12003KT 16/02 A3006 RMK A01 T01640020  RH  038%=      5-min Rain = 0
KDC1 150008Z 12003KT 16/02 A3006 RMK A01 T01640018  RH  037%=      5-min Rain = 0
KDC1 150009Z 11002KT 17/02 A3006 RMK A01 T01650018  RH  037%=      5-min Rain = 0
KDC1 150010Z 11003KT 17/02 A3006 RMK A01 T01650018  RH  037%=      5-min Rain = 0
KDC1 150011Z 11003KT 17/02 A3006 RMK A01 T01660018  RH  037%=      5-min Rain = 0
KDC1 150012Z 11002KT 17/02 A3006 RMK A01 T01660019  RH  037%=      5-min Rain = 0
KDC1 150013Z 12002KT 17/02 A3006 RMK A01 T01660020  RH  037%=      5-min Rain = 0
KDC1 150014Z 12002KT 17/02 A3006 RMK A01 T01650020  RH  038%=      5-min Rain = 0
KDC1 150015Z 11003KT 17/02 A3006 RMK A01 T01650022  RH  038%=      5-min Rain = 0
KDC1 150016Z 12002KT 17/02 A3006 RMK A01 T01650022  RH  038%=      5-min Rain = 0
KDC1 150017Z 12003KT 16/02 A3006 RMK A01 T01640022  RH  038%=      5-min Rain = 0
KDC1 150018Z 12003KT 16/02 A3006 RMK A01 T01640023  RH  039%=      5-min Rain = 0
KDC1 150019Z 12002KT 16/02 A3006 RMK A01 T01630023  RH  039%=      5-min Rain = 0
KDC1 150020Z 12002KT 16/02 A3006 RMK A01 T01630023  RH  039%=      5-min Rain = 0
KDC1 150021Z 12002KT 16/02 A3006 RMK A01 T01630022  RH  039%=      5-min Rain = 0
KDC1 150022Z 12002KT 16/02 A3006 RMK A01 T01630023  RH  039%=      5-min Rain = 0
KDC1 150023Z 13002KT 16/02 A3006 RMK A01 T01630024  RH  039%=      5-min Rain = 0
KDC1 150024Z 13002KT 16/03 A3006 RMK A01 T01630025  RH  039%=      5-min Rain = 0
KDC1 150025Z 13002KT 16/02 A3006 RMK A01 T01620023  RH  039%=      5-min Rain = 0
KDC1 150026Z 13002KT 16/02 A3006 RMK A01 T01620022  RH  039%=      5-min Rain = 0
KDC1 150027Z 13001KT 16/02 A3006 RMK A01 T01620022  RH  039%=      5-min Rain = 0
KDC1 150028Z 13001KT 16/02 A3006 RMK A01 T01620022  RH  039%=      5-min Rain = 0
KDC1 150029Z 13000KT 16/02 A3006 RMK A01 T01600022  RH  039%=      5-min Rain = 0
KDC1 150030Z 00000KT 16/02 A3006 RMK A01 T01590024  RH  040%=      5-min Rain = 0
KDC1 150031Z 00000KT 16/02 A3006 RMK A01 T01580024  RH  041%=      5-min Rain = 0
KDC1 150032Z 34001KT 16/02 A3006 RMK A01 T01580023  RH  040%=      5-min Rain = 0
KDC1 150033Z 34001KT 16/02 A3006 RMK A01 T01570021  RH  040%=      5-min Rain = 0
KDC1 150034Z 33002KT 16/02 A3006 RMK A01 T01570022  RH  040%=      5-min Rain = 0
KDC1 150035Z 33002KT 16/03 A3006 RMK A01 T01570027  RH  042%=      5-min Rain = 0
KDC1 150036Z 32003KT 16/03 A3006 RMK A01 T01550031  RH  043%=      5-min Rain = 0
KDC1 150037Z 33004KT 15/03 A3006 RMK A01 T01530032  RH  044%=      5-min Rain = 0
KDC1 150038Z 33004KT 15/03 A3006 RMK A01 T01500033  RH  045%=      5-min Rain = 0
KDC1 150039Z 33004KT 15/03 A3006 RMK A01 T01460033  RH  047%=      5-min Rain = 0
KDC1 150040Z 33005KT 14/03 A3006 RMK A01 T01430032  RH  047%=      5-min Rain = 0
KDC1 150041Z 33005KT 14/03 A3006 RMK A01 T01420031  RH  047%=      5-min Rain = 0
KDC1 150042Z 33004KT 14/03 A3006 RMK A01 T01390031  RH  048%=      5-min Rain = 0
KDC1 150043Z 32004KT 14/03 A3006 RMK A01 T01380029  RH  048%=      5-min Rain = 0
KDC1 150044Z 32004KT 14/03 A3006 RMK A01 T01370027  RH  047%=      5-min Rain = 0
KDC1 150045Z 32004KT 14/03 A3006 RMK A01 T01380027  RH  047%=      5-min Rain = 0
KDC1 150046Z 32004KT 14/03 A3006 RMK A01 T01380027  RH  047%=      5-min Rain = 0
KDC1 150047Z 32004KT 14/03 A3006 RMK A01 T01370027  RH  047%=      5-min Rain = 0
KDC1 150048Z 32004KT 14/03 A3006 RMK A01 T01360027  RH  048%=      5-min Rain = 0
KDC1 150049Z 32004KT 14/03 A3006 RMK A01 T01350028  RH  048%=      5-min Rain = 0
KDC1 150050Z 32004KT 13/03 A3006 RMK A01 T01330028  RH  049%=      5-min Rain = 0
KDC1 150051Z 32004KT 13/03 A3006 RMK A01 T01320029  RH  050%=      5-min Rain = 0
KDC1 150052Z 32003KT 13/03 A3006 RMK A01 T01300029  RH  050%=      5-min Rain = 0
KDC1 150053Z 31003KT 13/03 A3006 RMK A01 T01280030  RH  051%=      5-min Rain = 0
KDC1 150054Z 31003KT 13/03 A3007 RMK A01 T01260030  RH  052%=      5-min Rain = 0
KDC1 150055Z 31003KT 12/03 A3007 RMK A01 T01240031  RH  053%=      5-min Rain = 0
KDC1 150056Z 31003KT 12/03 A3007 RMK A01 T01230032  RH  054%=      5-min Rain = 0
KDC1 150057Z 30003KT 12/03 A3007 RMK A01 T01210032  RH  054%=      5-min Rain = 0
KDC1 150058Z 30003KT 12/03 A3007 RMK A01 T01200031  RH  055%=      5-min Rain = 0
KDC1 150059Z 30003KT 12/03 A3007 RMK A01 T01190032  RH  055%=      5-min Rain = 0
KDC1 150100Z 29003KT 12/03 A3007 RMK A01 T01180031  RH  055%=      5-min Rain = 0
KDC1 150101Z 29003KT 12/03 A3007 RMK A01 T01180031  RH  055%=      5-min Rain = 0
KDC1 150102Z 29003KT 12/03 A3006 RMK A01 T01180032  RH  056%=      5-min Rain = 0
KDC1 150103Z 29003KT 12/03 A3007 RMK A01 T01170033  RH  056%=      5-min Rain = 0
KDC1 150104Z 29003KT 12/03 A3007 RMK A01 T01170033  RH  056%=      5-min Rain = 0
KDC1 150105Z 28003KT 12/03 A3007 RMK A01 T01160033  RH  057%=      5-min Rain = 0
KDC1 150106Z 28003KT 12/03 A3007 RMK A01 T01160033  RH  057%=      5-min Rain = 0
KDC1 150107Z 28003KT 12/03 A3007 RMK A01 T01150034  RH  058%=      5-min Rain = 0
KDC1 150108Z 28003KT 11/03 A3007 RMK A01 T01130034  RH  058%=      5-min Rain = 0
KDC1 150109Z 28003KT 11/03 A3007 RMK A01 T01110034  RH  059%=      5-min Rain = 0
KDC1 150110Z 28003KT 11/03 A3007 RMK A01 T01100034  RH  059%=      5-min Rain = 0
KDC1 150111Z 28003KT 11/03 A3007 RMK A01 T01090034  RH  060%=      5-min Rain = 0
KDC1 150112Z 28003KT 11/03 A3007 RMK A01 T01080034  RH  060%=      5-min Rain = 0
KDC1 150113Z 28004KT 11/03 A3007 RMK A01 T01070032  RH  060%=      5-min Rain = 0
KDC1 150114Z 28004KT 11/03 A3007 RMK A01 T01080032  RH  059%=      5-min Rain = 0
KDC1 150115Z 28004KT 11/03 A3007 RMK A01 T01090032  RH  059%=      5-min Rain = 0
KDC1 150116Z 27003KT 11/03 A3007 RMK A01 T01080032  RH  059%=      5-min Rain = 0
KDC1 150117Z 28003KT 11/03 A3007 RMK A01 T01090031  RH  059%=      5-min Rain = 0
KDC1 150118Z 28003KT 11/03 A3007 RMK A01 T01090031  RH  059%=      5-min Rain = 0
KDC1 150119Z 27003KT 11/03 A3007 RMK A01 T01090030  RH  058%=      5-min Rain = 0
KDC1 150120Z 27003KT 11/03 A3007 RMK A01 T01100029  RH  058%=      5-min Rain = 0
KDC1 150121Z 27003KT 11/03 A3007 RMK A01 T01100029  RH  057%=      5-min Rain = 0
KDC1 150122Z 27003KT 11/03 A3007 RMK A01 T01120025  RH  055%=      5-min Rain = 0
KDC1 150123Z 26002KT 11/02 A3007 RMK A01 T01130024  RH  054%=      5-min Rain = 0
KDC1 150124Z 26002KT 12/02 A3007 RMK A01 T01160021  RH  052%=      5-min Rain = 0
KDC1 150125Z 26002KT 12/02 A3007 RMK A01 T01190018  RH  050%=      5-min Rain = 0
KDC1 150126Z 25002KT 12/02 A3008 RMK A01 T01220019  RH  049%=      5-min Rain = 0
KDC1 150127Z 24002KT 12/02 A3008 RMK A01 T01240023  RH  050%=      5-min Rain = 0
KDC1 150128Z 23002KT 12/03 A3008 RMK A01 T01210027  RH  053%=      5-min Rain = 0
KDC1 150129Z 24002KT 12/03 A3008 RMK A01 T01170025  RH  053%=      5-min Rain = 0
KDC1 150130Z 23002KT 12/03 A3008 RMK A01 T01150025  RH  054%=      5-min Rain = 0
KDC1 150131Z 23002KT 11/02 A3008 RMK A01 T01130023  RH  054%=      5-min Rain = 0
KDC1 150132Z 22002KT 11/02 A3008 RMK A01 T01140019  RH  052%=      5-min Rain = 0
KDC1 150133Z 22002KT 12/02 A3008 RMK A01 T01160021  RH  052%=      5-min Rain = 0
KDC1 150134Z 21002KT 12/03 A3008 RMK A01 T01150027  RH  055%=      5-min Rain = 0
KDC1 150135Z 21002KT 11/03 A3008 RMK A01 T01100026  RH  056%=      5-min Rain = 0
KDC1 150136Z 22002KT 11/03 A3008 RMK A01 T01080025  RH  056%=      5-min Rain = 0
KDC1 150137Z 21002KT 11/03 A3008 RMK A01 T01060026  RH  057%=      5-min Rain = 0
KDC1 150138Z 21002KT 10/03 A3008 RMK A01 T01040025  RH  058%=      5-min Rain = 0
KDC1 150139Z 21002KT 10/02 A3008 RMK A01 T01030024  RH  058%=      5-min Rain = 0
KDC1 150140Z 20002KT 10/02 A3008 RMK A01 T01020023  RH  058%=      5-min Rain = 0
KDC1 150141Z 20001KT 10/03 A3008 RMK A01 T01030027  RH  059%=      5-min Rain = 0
KDC1 150142Z 21002KT 10/03 A3008 RMK A01 T01020028  RH  060%=      5-min Rain = 0
KDC1 150143Z 21002KT 10/03 A3008 RMK A01 T01010028  RH  060%=      5-min Rain = 0
KDC1 150144Z 23001KT 10/03 A3008 RMK A01 T00990031  RH  062%=      5-min Rain = 0
KDC1 150145Z 18001KT 10/03 A3008 RMK A01 T00960031  RH  064%=      5-min Rain = 0
KDC1 150146Z 14000KT 10/03 A3008 RMK A01 T00950030  RH  064%=      5-min Rain = 0
KDC1 150147Z 17002KT 09/03 A3009 RMK A01 T00940031  RH  064%=      5-min Rain = 0
KDC1 150148Z 17003KT 09/03 A3009 RMK A01 T00930028  RH  064%=      5-min Rain = 0
KDC1 150149Z 17002KT 09/03 A3009 RMK A01 T00940028  RH  063%=      5-min Rain = 0
KDC1 150150Z 16002KT 10/03 A3009 RMK A01 T00950029  RH  063%=      5-min Rain = 0
KDC1 150151Z 17003KT 10/03 A3009 RMK A01 T00950028  RH  063%=      5-min Rain = 0
KDC1 150152Z 17003KT 10/03 A3009 RMK A01 T00950026  RH  062%=      5-min Rain = 0
KDC1 150153Z 17004KT 10/03 A3009 RMK A01 T00950025  RH  062%=      5-min Rain = 0
KDC1 150154Z 17004KT 10/03 A3009 RMK A01 T00960025  RH  061%=      5-min Rain = 0
KDC1 150155Z 17004KT 10/03 A3009 RMK A01 T00970025  RH  061%=      5-min Rain = 0
KDC1 150156Z 17004KT 10/03 A3009 RMK A01 T00970025  RH  061%=      5-min Rain = 0
KDC1 150157Z 17004KT 10/03 A3009 RMK A01 T00990025  RH  060%=      5-min Rain = 0
KDC1 150158Z 17004KT 10/03 A3009 RMK A01 T00990025  RH  060%=      5-min Rain = 0
KDC1 150159Z 17004KT 10/03 A3009 RMK A01 T01020025  RH  059%=      5-min Rain = 0
KDC1 150200Z 17004KT 10/03 A3009 RMK A01 T01040026  RH  059%=      5-min Rain = 0
KDC1 150201Z 18004KT 11/03 A3009 RMK A01 T01050026  RH  058%=      5-min Rain = 0
KDC1 150202Z 19003KT 11/03 A3009 RMK A01 T01080026  RH  057%=      5-min Rain = 0
KDC1 150203Z 19004KT 11/03 A3009 RMK A01 T01090027  RH  057%=      5-min Rain = 0
KDC1 150204Z 17004KT 11/03 A3009 RMK A01 T01080028  RH  057%=      5-min Rain = 0
KDC1 150205Z 16004KT 11/03 A3009 RMK A01 T01080027  RH  057%=      5-min Rain = 0
KDC1 150206Z 16004KT 11/03 A3009 RMK A01 T01090026  RH  057%=      5-min Rain = 0
KDC1 150207Z 15004KT 11/03 A3009 RMK A01 T01100026  RH  056%=      5-min Rain = 0
KDC1 150208Z 16004KT 11/03 A3009 RMK A01 T01120026  RH  055%=      5-min Rain = 0
KDC1 150209Z 17003KT 11/03 A3009 RMK A01 T01140027  RH  055%=      5-min Rain = 0
KDC1 150210Z 17003KT 11/03 A3009 RMK A01 T01120027  RH  056%=      5-min Rain = 0
KDC1 150211Z 18003KT 11/03 A3009 RMK A01 T01100027  RH  056%=      5-min Rain = 0
KDC1 150212Z 18003KT 11/03 A3009 RMK A01 T01090027  RH  057%=      5-min Rain = 0
KDC1 150213Z 18004KT 11/03 A301 RMK A01 T01080027  RH  057%=      5-min Rain = 0
KDC1 150214Z 19003KT 11/03 A301 RMK A01 T01060028  RH  058%=      5-min Rain = 0
KDC1 150215Z 20003KT 10/03 A301 RMK A01 T01040028  RH  060%=      5-min Rain = 0
KDC1 150216Z 20003KT 10/03 A301 RMK A01 T01020028  RH  060%=      5-min Rain = 0
KDC1 150217Z 20002KT 10/03 A301 RMK A01 T01010028  RH  060%=      5-min Rain = 0
KDC1 150218Z 20003KT 10/03 A301 RMK A01 T01020027  RH  060%=      5-min Rain = 0
KDC1 150219Z 21004KT 10/03 A301 RMK A01 T01040028  RH  059%=      5-min Rain = 0
KDC1 150220Z 21004KT 10/03 A301 RMK A01 T01030028  RH  059%=      5-min Rain = 0
KDC1 150221Z 22004KT 10/03 A301 RMK A01 T01030027  RH  059%=      5-min Rain = 0
KDC1 150222Z 22004KT 10/03 A301 RMK A01 T01040026  RH  059%=      5-min Rain = 0
KDC1 150223Z 22004KT 10/03 A301 RMK A01 T01040027  RH  059%=      5-min Rain = 0
KDC1 150224Z 22004KT 10/03 A301 RMK A01 T01020027  RH  060%=      5-min Rain = 0
KDC1 150225Z 21004KT 10/03 A301 RMK A01 T01010027  RH  060%=      5-min Rain = 0
KDC1 150226Z 21004KT 10/03 A301 RMK A01 T01000027  RH  060%=      5-min Rain = 0
KDC1 150227Z 21004KT 10/03 A301 RMK A01 T01000027  RH  060%=      5-min Rain = 0
KDC1 150228Z 21003KT 10/03 A301 RMK A01 T00990027  RH  061%=      5-min Rain = 0
KDC1 150229Z 21003KT 10/03 A301 RMK A01 T00980028  RH  062%=      5-min Rain = 0
KDC1 150230Z 20003KT 10/03 A301 RMK A01 T00960028  RH  062%=      5-min Rain = 0
KDC1 150231Z 19003KT 10/03 A301 RMK A01 T00950029  RH  063%=      5-min Rain = 0
KDC1 150232Z 20003KT 09/03 A301 RMK A01 T00920028  RH  064%=      5-min Rain = 0
KDC1 150233Z 19002KT 09/03 A301 RMK A01 T00910029  RH  065%=      5-min Rain = 0
KDC1 150234Z 19003KT 09/03 A301 RMK A01 T00890029  RH  066%=      5-min Rain = 0
KDC1 150235Z 19004KT 09/03 A301 RMK A01 T00870028  RH  066%=      5-min Rain = 0
KDC1 150236Z 19004KT 09/03 A301 RMK A01 T00870028  RH  066%=      5-min Rain = 0
KDC1 150237Z 19004KT 09/03 A301 RMK A01 T00870028  RH  066%=      5-min Rain = 0
KDC1 150238Z 18004KT 09/03 A301 RMK A01 T00870028  RH  067%=      5-min Rain = 0
KDC1 150239Z 18003KT 09/03 A301 RMK A01 T00860028  RH  067%=      5-min Rain = 0
KDC1 150240Z 18003KT 09/03 A301 RMK A01 T00860028  RH  067%=      5-min Rain = 0
KDC1 150241Z 18003KT 09/03 A301 RMK A01 T00850029  RH  067%=      5-min Rain = 0
KDC1 150242Z 18004KT 08/03 A301 RMK A01 T00840028  RH  068%=      5-min Rain = 0
KDC1 150243Z 19004KT 09/03 A301 RMK A01 T00850029  RH  068%=      5-min Rain = 0
KDC1 150244Z 20005KT 09/03 A301 RMK A01 T00860029  RH  067%=      5-min Rain = 0
KDC1 150245Z 20004KT 09/03 A301 RMK A01 T00870029  RH  067%=      5-min Rain = 0
KDC1 150246Z 20004KT 09/03 A301 RMK A01 T00870029  RH  067%=      5-min Rain = 0
KDC1 150247Z 20003KT 09/03 A301 RMK A01 T00880029  RH  067%=      5-min Rain = 0
KDC1 150248Z 22004KT 09/03 A301 RMK A01 T00890029  RH  066%=      5-min Rain = 0
KDC1 150249Z 22004KT 09/03 A301 RMK A01 T00900029  RH  066%=      5-min Rain = 0
KDC1 150250Z 21005KT 09/03 A301 RMK A01 T00890029  RH  066%=      5-min Rain = 0
KDC1 150251Z 23005KT 09/03 A301 RMK A01 T00890029  RH  066%=      5-min Rain = 0
KDC1 150252Z 23006KT 09/03 A301 RMK A01 T00890028  RH  066%=      5-min Rain = 0
KDC1 150253Z 22005KT 09/03 A301 RMK A01 T00890028  RH  066%=      5-min Rain = 0
KDC1 150254Z 22005KT 09/03 A301 RMK A01 T00890028  RH  066%=      5-min Rain = 0
KDC1 150255Z 22004KT 09/03 A301 RMK A01 T00890028  RH  066%=      5-min Rain = 0
KDC1 150256Z 21003KT 09/03 A301 RMK A01 T00890028  RH  066%=      5-min Rain = 0
KDC1 150257Z 20004KT 09/03 A301 RMK A01 T00870028  RH  066%=      5-min Rain = 0
KDC1 150258Z 21003KT 09/03 A301 RMK A01 T00870028  RH  067%=      5-min Rain = 0
KDC1 150259Z 20004KT 08/03 A301 RMK A01 T00840028  RH  068%=      5-min Rain = 0
KDC1 150300Z 21004KT 08/03 A301 RMK A01 T00820028  RH  069%=      5-min Rain = 0
KDC1 150301Z 21004KT 08/03 A301 RMK A01 T00810028  RH  069%=      5-min Rain = 0
KDC1 150302Z 21004KT 08/03 A301 RMK A01 T00790028  RH  070%=      5-min Rain = 0
KDC1 150303Z 21003KT 08/03 A301 RMK A01 T00780028  RH  070%=      5-min Rain = 0
KDC1 150304Z 21004KT 08/03 A301 RMK A01 T00760028  RH  071%=      5-min Rain = 0
KDC1 150305Z 22004KT 07/03 A301 RMK A01 T00740028  RH  072%=      5-min Rain = 0
KDC1 150306Z 22004KT 07/03 A301 RMK A01 T00730028  RH  073%=      5-min Rain = 0
KDC1 150307Z 22004KT 07/03 A301 RMK A01 T00710028  RH  074%=      5-min Rain = 0
KDC1 150308Z 23004KT 07/03 A301 RMK A01 T00700028  RH  075%=      5-min Rain = 0
KDC1 150309Z 23005KT 07/03 A301 RMK A01 T00680028  RH  075%=      5-min Rain = 0
KDC1 150310Z 23005KT 07/03 A3011 RMK A01 T00670028  RH  076%=      5-min Rain = 0
KDC1 150311Z 23005KT 07/03 A3011 RMK A01 T00680028  RH  076%=      5-min Rain = 0
KDC1 150312Z 23004KT 07/03 A3011 RMK A01 T00680028  RH  075%=      5-min Rain = 0
KDC1 150313Z 22004KT 07/03 A3011 RMK A01 T00690028  RH  075%=      5-min Rain = 0
KDC1 150314Z 23005KT 07/03 A3011 RMK A01 T00690028  RH  075%=      5-min Rain = 0
KDC1 150315Z 23005KT 07/03 A3011 RMK A01 T00700028  RH  075%=      5-min Rain = 0
KDC1 150316Z 22006KT 07/03 A3011 RMK A01 T00710029  RH  074%=      5-min Rain = 0
KDC1 150317Z 22005KT 07/03 A3011 RMK A01 T00740029  RH  073%=      5-min Rain = 0
KDC1 150318Z 22006KT 08/03 A3011 RMK A01 T00770028  RH  071%=      5-min Rain = 0
KDC1 150319Z 23005KT 08/03 A3011 RMK A01 T00790028  RH  070%=      5-min Rain = 0
KDC1 150320Z 22005KT 08/03 A3011 RMK A01 T00790028  RH  070%=      5-min Rain = 0
KDC1 150321Z 22005KT 08/03 A3011 RMK A01 T00790028  RH  070%=      5-min Rain = 0
KDC1 150322Z 22005KT 08/03 A3011 RMK A01 T00790028  RH  070%=      5-min Rain = 0
KDC1 150323Z 21006KT 08/03 A3011 RMK A01 T00790028  RH  070%=      5-min Rain = 0
KDC1 150324Z 21006KT 08/03 A3011 RMK A01 T00790027  RH  070%=      5-min Rain = 0
KDC1 150325Z 20005KT 08/03 A3011 RMK A01 T00790028  RH  070%=      5-min Rain = 0
KDC1 150326Z 20005KT 08/03 A3011 RMK A01 T00800028  RH  070%=      5-min Rain = 0
KDC1 150327Z 20005KT 08/03 A3011 RMK A01 T00800028  RH  069%=      5-min Rain = 0
KDC1 150328Z 21005KT 08/03 A3011 RMK A01 T00800028  RH  069%=      5-min Rain = 0
KDC1 150329Z 21005KT 08/03 A3011 RMK A01 T00810027  RH  069%=      5-min Rain = 0
KDC1 150330Z 20004KT 08/03 A3011 RMK A01 T00830027  RH  068%=      5-min Rain = 0
KDC1 150331Z 20005KT 08/03 A3011 RMK A01 T00840028  RH  068%=      5-min Rain = 0
KDC1 150332Z 21004KT 08/03 A3011 RMK A01 T00840027  RH  067%=      5-min Rain = 0
KDC1 150333Z 20004KT 08/03 A3011 RMK A01 T00840027  RH  067%=      5-min Rain = 0
KDC1 150334Z 20004KT 08/03 A3011 RMK A01 T00840027  RH  067%=      5-min Rain = 0
KDC1 150335Z 20004KT 09/03 A3011 RMK A01 T00850027  RH  067%=      5-min Rain = 0
KDC1 150336Z 20005KT 09/03 A3011 RMK A01 T00850027  RH  067%=      5-min Rain = 0
KDC1 150337Z 20005KT 09/03 A3011 RMK A01 T00850027  RH  067%=      5-min Rain = 0
KDC1 150338Z 20006KT 09/03 A3011 RMK A01 T00850027  RH  067%=      5-min Rain = 0
KDC1 150339Z 20006KT 09/03 A3011 RMK A01 T00860027  RH  066%=      5-min Rain = 0
KDC1 150340Z 20006KT 09/03 A3011 RMK A01 T00870027  RH  066%=      5-min Rain = 0
KDC1 150341Z 20007KT 09/03 A3011 RMK A01 T00880027  RH  066%=      5-min Rain = 0
KDC1 150342Z 19006KT 09/03 A3011 RMK A01 T00880027  RH  065%=      5-min Rain = 0
KDC1 150343Z 20006KT 09/03 A3011 RMK A01 T00900027  RH  064%=      5-min Rain = 0
KDC1 150344Z 20006KT 09/03 A3011 RMK A01 T00920027  RH  064%=      5-min Rain = 0
KDC1 150345Z 21005KT 09/03 A3011 RMK A01 T00920027  RH  064%=      5-min Rain = 0
KDC1 150346Z 19006KT 09/03 A3011 RMK A01 T00910026  RH  064%=      5-min Rain = 0
KDC1 150347Z 20007KT 09/03 A3011 RMK A01 T00910027  RH  064%=      5-min Rain = 0
KDC1 150348Z 20008KT 09/03 A3011 RMK A01 T00910026  RH  064%=      5-min Rain = 0
KDC1 150349Z 20008KT 09/03 A3011 RMK A01 T00910026  RH  064%=      5-min Rain = 0
KDC1 150350Z 19007KT 09/03 A3011 RMK A01 T00920027  RH  064%=      5-min Rain = 0
KDC1 150351Z 19008KT 09/03 A3011 RMK A01 T00930026  RH  063%=      5-min Rain = 0
KDC1 150352Z 19008KT 09/03 A3011 RMK A01 T00930026  RH  063%=      5-min Rain = 0
KDC1 150353Z 19008KT 10/03 A3011 RMK A01 T00950026  RH  062%=      5-min Rain = 0
KDC1 150354Z 19007G12KT 10/03 A3011 RMK A01 T00950026  RH  062%=      5-min Rain = 0
KDC1 150355Z 20007KT 10/03 A3011 RMK A01 T00950026  RH  062%=      5-min Rain = 0
KDC1 150356Z 19008KT 10/03 A3011 RMK A01 T00950026  RH  062%=      5-min Rain = 0
KDC1 150357Z 20008KT 10/03 A3011 RMK A01 T00960026  RH  062%=      5-min Rain = 0
KDC1 150358Z 19007KT 10/03 A3011 RMK A01 T00960026  RH  062%=      5-min Rain = 0
KDC1 150359Z 19007KT 10/03 A3011 RMK A01 T00960025  RH  062%=      5-min Rain = 0
KDC1 150400Z 20007KT 10/03 A3011 RMK A01 T00960026  RH  062%=      5-min Rain = 0
KDC1 150401Z 20007KT 10/03 A3011 RMK A01 T00950026  RH  062%=      5-min Rain = 0
KDC1 150402Z 20006KT 10/03 A3011 RMK A01 T00950026  RH  062%=      5-min Rain = 0
KDC1 150403Z 20006KT 10/03 A3012 RMK A01 T00950026  RH  062%=      5-min Rain = 0
KDC1 150404Z 21005KT 10/03 A3012 RMK A01 T00950025  RH  062%=      5-min Rain = 0
KDC1 150405Z 20006KT 09/03 A3012 RMK A01 T00930025  RH  062%=      5-min Rain = 0
KDC1 150406Z 20006KT 09/03 A3012 RMK A01 T00920025  RH  063%=      5-min Rain = 0
KDC1 150407Z 21005KT 09/03 A3012 RMK A01 T00910025  RH  063%=      5-min Rain = 0
KDC1 150408Z 20005KT 09/03 A3012 RMK A01 T00900025  RH  064%=      5-min Rain = 0
KDC1 150409Z 20005KT 09/03 A3012 RMK A01 T00890025  RH  064%=      5-min Rain = 0
KDC1 150410Z 19006KT 09/03 A3012 RMK A01 T00880025  RH  065%=      5-min Rain = 0
KDC1 150411Z 20007KT 09/03 A3012 RMK A01 T00870025  RH  065%=      5-min Rain = 0
KDC1 150412Z 20006KT 09/03 A3012 RMK A01 T00880025  RH  065%=      5-min Rain = 0
KDC1 150413Z 20006KT 09/03 A3011 RMK A01 T00880025  RH  064%=      5-min Rain = 0
KDC1 150414Z 20006KT 09/02 A3011 RMK A01 T00890024  RH  064%=      5-min Rain = 0
KDC1 150415Z 20006KT 09/03 A3011 RMK A01 T00900025  RH  064%=      5-min Rain = 0
KDC1 150416Z 20007KT 09/03 A3011 RMK A01 T00900025  RH  064%=      5-min Rain = 0
KDC1 150417Z 20007KT 09/02 A3011 RMK A01 T00900024  RH  063%=      5-min Rain = 0
KDC1 150418Z 19007KT 09/03 A3011 RMK A01 T00900025  RH  063%=      5-min Rain = 0
KDC1 150419Z 19006KT 09/02 A3011 RMK A01 T00900024  RH  063%=      5-min Rain = 0
KDC1 150420Z 20006KT 09/03 A3011 RMK A01 T00900025  RH  063%=      5-min Rain = 0
KDC1 150421Z 20005KT 09/02 A3011 RMK A01 T00900024  RH  064%=      5-min Rain = 0
KDC1 150422Z 19007KT 09/02 A3011 RMK A01 T00900024  RH  064%=      5-min Rain = 0
KDC1 150423Z 20006KT 09/02 A3011 RMK A01 T00890024  RH  064%=      5-min Rain = 0
KDC1 150424Z 20006KT 09/02 A3011 RMK A01 T00890024  RH  064%=      5-min Rain = 0
KDC1 150425Z 20006KT 09/02 A3011 RMK A01 T00890024  RH  064%=      5-min Rain = 0
KDC1 150426Z 20007KT 09/02 A3011 RMK A01 T00890024  RH  064%=      5-min Rain = 0
KDC1 150427Z 21006KT 09/02 A3011 RMK A01 T00890024  RH  064%=      5-min Rain = 0
KDC1 150428Z 20005KT 09/02 A3012 RMK A01 T00880024  RH  064%=      5-min Rain = 0
KDC1 150429Z 20006KT 09/02 A3012 RMK A01 T00870024  RH  065%=      5-min Rain = 0
KDC1 150430Z 20007KT 09/03 A3012 RMK A01 T00860025  RH  065%=      5-min Rain = 0
KDC1 150431Z 19007KT 09/02 A3011 RMK A01 T00850024  RH  065%=      5-min Rain = 0
KDC1 150432Z 19007KT 09/03 A3012 RMK A01 T00860025  RH  065%=      5-min Rain = 0
KDC1 150433Z 19007KT 09/02 A3012 RMK A01 T00860024  RH  065%=      5-min Rain = 0
KDC1 150434Z 19007KT 09/02 A3012 RMK A01 T00860024  RH  065%=      5-min Rain = 0
KDC1 150435Z 19007KT 09/02 A3012 RMK A01 T00870024  RH  065%=      5-min Rain = 0
KDC1 150436Z 19007KT 09/02 A3012 RMK A01 T00870024  RH  065%=      5-min Rain = 0
KDC1 150437Z 20007KT 09/02 A3012 RMK A01 T00870024  RH  064%=      5-min Rain = 0
KDC1 150438Z 19006KT 09/02 A3012 RMK A01 T00880024  RH  064%=      5-min Rain = 0
KDC1 150439Z 21004KT 09/02 A3012 RMK A01 T00880024  RH  064%=      5-min Rain = 0
KDC1 150440Z 20004KT 09/02 A3012 RMK A01 T00870024  RH  065%=      5-min Rain = 0
KDC1 150441Z 21005KT 09/02 A3012 RMK A01 T00850024  RH  065%=      5-min Rain = 0
KDC1 150442Z 22005KT 08/02 A3012 RMK A01 T00820024  RH  066%=      5-min Rain = 0
KDC1 150443Z 22004KT 08/02 A3012 RMK A01 T00790024  RH  068%=      5-min Rain = 0
KDC1 150444Z 22005KT 08/02 A3012 RMK A01 T00760024  RH  069%=      5-min Rain = 0
KDC1 150445Z 22006KT 07/02 A3012 RMK A01 T00740024  RH  071%=      5-min Rain = 0
KDC1 150446Z 22005KT 07/02 A3012 RMK A01 T00730024  RH  071%=      5-min Rain = 0
KDC1 150447Z 21004KT 07/02 A3012 RMK A01 T00730024  RH  071%=      5-min Rain = 0
KDC1 150448Z 20005KT 07/02 A3012 RMK A01 T00720024  RH  071%=      5-min Rain = 0
KDC1 150449Z 21004KT 07/02 A3012 RMK A01 T00720024  RH  071%=      5-min Rain = 0
KDC1 150450Z 21005KT 07/02 A3012 RMK A01 T00720024  RH  072%=      5-min Rain = 0
KDC1 150451Z 21004KT 07/02 A3012 RMK A01 T00720024  RH  072%=      5-min Rain = 0
KDC1 150452Z 20005KT 07/02 A3011 RMK A01 T00720024  RH  072%=      5-min Rain = 0
KDC1 150453Z 21006KT 07/02 A3011 RMK A01 T00720024  RH  071%=      5-min Rain = 0
KDC1 150454Z 21005KT 07/02 A3011 RMK A01 T00730024  RH  071%=      5-min Rain = 0
KDC1 150455Z 21005KT 07/02 A3011 RMK A01 T00730024  RH  071%=      5-min Rain = 0
KDC1 150456Z 21005KT 07/02 A3011 RMK A01 T00730024  RH  071%=      5-min Rain = 0
KDC1 150457Z 20005KT 07/02 A3011 RMK A01 T00720024  RH  071%=      5-min Rain = 0
KDC1 150458Z 21005KT 07/02 A3011 RMK A01 T00720024  RH  071%=      5-min Rain = 0
KDC1 150459Z 21006KT 07/02 A3011 RMK A01 T00720024  RH  071%=      5-min Rain = 0
KDC1 150500Z 21005KT 07/02 A3011 RMK A01 T00720024  RH  071%=      5-min Rain = 0
KDC1 150501Z 20006KT 07/02 A3011 RMK A01 T00720023  RH  071%=      5-min Rain = 0
KDC1 150502Z 20007KT 07/02 A3011 RMK A01 T00730024  RH  071%=      5-min Rain = 0
KDC1 150503Z 19007KT 08/03 A3011 RMK A01 T00750025  RH  070%=      5-min Rain = 0
KDC1 150504Z 20006KT 08/02 A3011 RMK A01 T00770024  RH  069%=      5-min Rain = 0
KDC1 150505Z 20005KT 08/02 A3011 RMK A01 T00780024  RH  069%=      5-min Rain = 0
KDC1 150506Z 20005KT 08/02 A3011 RMK A01 T00780023  RH  068%=      5-min Rain = 0
KDC1 150507Z 21005KT 08/02 A3011 RMK A01 T00780024  RH  068%=      5-min Rain = 0
KDC1 150508Z 20004KT 08/02 A3011 RMK A01 T00780023  RH  068%=      5-min Rain = 0
KDC1 150509Z 20004KT 08/02 A3011 RMK A01 T00770023  RH  069%=      5-min Rain = 0
KDC1 150510Z 20004KT 08/02 A3011 RMK A01 T00760023  RH  069%=      5-min Rain = 0
KDC1 150511Z 20005KT 07/02 A3011 RMK A01 T00740023  RH  070%=      5-min Rain = 0
KDC1 150512Z 20006KT 07/02 A3011 RMK A01 T00740023  RH  070%=      5-min Rain = 0
KDC1 150513Z 20007KT 08/02 A3011 RMK A01 T00750023  RH  070%=      5-min Rain = 0
KDC1 150514Z 20007KT 08/02 A3011 RMK A01 T00760023  RH  069%=      5-min Rain = 0
KDC1 150515Z 20006KT 08/02 A3011 RMK A01 T00760023  RH  069%=      5-min Rain = 0
KDC1 150516Z 21005KT 08/02 A3011 RMK A01 T00770024  RH  069%=      5-min Rain = 0
KDC1 150517Z 21003KT 08/02 A3011 RMK A01 T00770023  RH  069%=      5-min Rain = 0
KDC1 150518Z 21004KT 08/02 A3011 RMK A01 T00760023  RH  069%=      5-min Rain = 0
KDC1 150519Z 21004KT 08/02 A3011 RMK A01 T00750023  RH  069%=      5-min Rain = 0
KDC1 150520Z 22005KT 07/02 A3011 RMK A01 T00730022  RH  070%=      5-min Rain = 0
KDC1 150521Z 22005KT 07/02 A3011 RMK A01 T00710022  RH  071%=      5-min Rain = 0
KDC1 150522Z 22005KT 07/02 A3011 RMK A01 T00690022  RH  072%=      5-min Rain = 0
KDC1 150523Z 22005KT 07/02 A3011 RMK A01 T00670022  RH  073%=      5-min Rain = 0
KDC1 150524Z 22004KT 07/02 A3011 RMK A01 T00660022  RH  073%=      5-min Rain = 0
KDC1 150525Z 23004KT 06/02 A3011 RMK A01 T00640021  RH  074%=      5-min Rain = 0
KDC1 150526Z 23004KT 06/02 A3011 RMK A01 T00620022  RH  075%=      5-min Rain = 0
KDC1 150527Z 23004KT 06/02 A3011 RMK A01 T00600022  RH  076%=      5-min Rain = 0
KDC1 150528Z 23005KT 06/02 A3011 RMK A01 T00590022  RH  077%=      5-min Rain = 0
KDC1 150529Z 23005KT 06/02 A3011 RMK A01 T00580022  RH  078%=      5-min Rain = 0
KDC1 150530Z 23005KT 06/02 A3011 RMK A01 T00570022  RH  078%=      5-min Rain = 0
KDC1 150531Z 23006KT 06/02 A3011 RMK A01 T00570022  RH  078%=      5-min Rain = 0
KDC1 150532Z 23006KT 06/02 A3011 RMK A01 T00570023  RH  078%=      5-min Rain = 0
KDC1 150533Z 23005KT 06/02 A3011 RMK A01 T00580023  RH  078%=      5-min Rain = 0
KDC1 150534Z 23005KT 06/02 A3011 RMK A01 T00580022  RH  078%=      5-min Rain = 0
KDC1 150535Z 23005KT 06/02 A3011 RMK A01 T00580022  RH  078%=      5-min Rain = 0
KDC1 150536Z 23005KT 06/02 A3011 RMK A01 T00580023  RH  078%=      5-min Rain = 0
KDC1 150537Z 24005KT 06/02 A3011 RMK A01 T00580023  RH  078%=      5-min Rain = 0
KDC1 150538Z 23005KT 06/02 A3011 RMK A01 T00580023  RH  078%=      5-min Rain = 0
KDC1 150539Z 23005KT 06/02 A3011 RMK A01 T00570022  RH  078%=      5-min Rain = 0
KDC1 150540Z 23005KT 06/02 A3011 RMK A01 T00570022  RH  079%=      5-min Rain = 0
KDC1 150541Z 23005KT 06/02 A3011 RMK A01 T00560022  RH  079%=      5-min Rain = 0
KDC1 150542Z 23004KT 06/02 A3011 RMK A01 T00550022  RH  079%=      5-min Rain = 0
KDC1 150543Z 23004KT 05/02 A3011 RMK A01 T00540022  RH  080%=      5-min Rain = 0
KDC1 150544Z 23004KT 05/02 A3011 RMK A01 T00540022  RH  080%=      5-min Rain = 0
KDC1 150545Z 24004KT 05/02 A3011 RMK A01 T00530021  RH  080%=      5-min Rain = 0
KDC1 150546Z 24005KT 05/02 A3011 RMK A01 T00530021  RH  080%=      5-min Rain = 0
KDC1 150547Z 24005KT 05/02 A3011 RMK A01 T00520021  RH  081%=      5-min Rain = 0
KDC1 150548Z 24004KT 05/02 A3011 RMK A01 T00520022  RH  081%=      5-min Rain = 0
KDC1 150549Z 24005KT 05/02 A3011 RMK A01 T00520022  RH  081%=      5-min Rain = 0
KDC1 150550Z 24005KT 05/02 A3011 RMK A01 T00520022  RH  081%=      5-min Rain = 0
KDC1 150551Z 24005KT 05/02 A3011 RMK A01 T00520022  RH  081%=      5-min Rain = 0
KDC1 150552Z 24005KT 05/02 A3011 RMK A01 T00520022  RH  081%=      5-min Rain = 0
KDC1 150553Z 24005KT 05/02 A3011 RMK A01 T00520022  RH  081%=      5-min Rain = 0
KDC1 150554Z 24005KT 05/02 A3011 RMK A01 T00520021  RH  080%=      5-min Rain = 0
KDC1 150555Z 24005KT 05/02 A3011 RMK A01 T00520021  RH  080%=      5-min Rain = 0
KDC1 150556Z 24005KT 05/02 A3011 RMK A01 T00520021  RH  080%=      5-min Rain = 0
KDC1 150557Z 24005KT 05/02 A3011 RMK A01 T00520021  RH  080%=      5-min Rain = 0
KDC1 150558Z 24005KT 05/02 A3011 RMK A01 T00520021  RH  080%=      5-min Rain = 0
KDC1 150559Z 24005KT 05/02 A3011 RMK A01 T00520022  RH  080%=      5-min Rain = 0

Page generated in 0.1084 seconds.